<?xml version="1.0" encoding="UTF-8" standalone="no" ?>
<gpx xmlns="http://www.topografix.com/GPX/1/1" xmlns:xsi="http://www.w3.org/2001/XMLSchema-instance" xsi:schemaLocation="http://www.topografix.com/GPX/1/1 http://www.topografix.com/GPX/1/1/gpx.xsd" version="1.1" creator="VisuGPX - https://www.visugpx.com">
  <metadata>
    <name>VTT Sigean la Palme &amp; retour </name>
    <desc><![CDATA[Départ de Sigean et montée jusqu'au plateau jusqu'à l'indication du domaine "Castelsec" qu'il faut laisser sur la droite. la trace part à Gauche. A partir de ce point c'est un enchaînement de singles bien sympa. Une pause s'impose au dessus de Roquefort des Corbières. La trace passe par la Palme et à partir de là on change de relief et de paysages (plus aride et plus de cailloux ....) Et quelques belles surprises dans la partie la plus au nord du parcours....]]></desc>
  </metadata>
  <trk>
    <name><![CDATA[Les singles de Sigean et Roquefort-des-Corbières - 31039 - UtagawaVTT.com]]></name>
    <trkseg>
      <trkpt lat="43.02475" lon="2.97702">
        <ele>7.553</ele>
        <time>2021-02-28T08:08:55Z</time>
      </trkpt>
      <trkpt lat="43.0248" lon="2.9771">
        <ele>7.706</ele>
        <time>2021-02-28T08:10:56Z</time>
      </trkpt>
      <trkpt lat="43.0245" lon="2.97717">
        <ele>7.389</ele>
        <time>2021-02-28T08:11:11Z</time>
      </trkpt>
      <trkpt lat="43.023" lon="2.97669">
        <ele>8.23</ele>
        <time>2021-02-28T08:11:51Z</time>
      </trkpt>
      <trkpt lat="43.02151" lon="2.97619">
        <ele>8.945</ele>
        <time>2021-02-28T08:12:31Z</time>
      </trkpt>
      <trkpt lat="43.02051" lon="2.97591">
        <ele>10.305</ele>
        <time>2021-02-28T08:13:04Z</time>
      </trkpt>
      <trkpt lat="43.01935" lon="2.97554">
        <ele>12.873</ele>
        <time>2021-02-28T08:13:52Z</time>
      </trkpt>
      <trkpt lat="43.0183" lon="2.97518">
        <ele>20.569</ele>
        <time>2021-02-28T08:14:37Z</time>
      </trkpt>
      <trkpt lat="43.01732" lon="2.97488">
        <ele>31.811</ele>
        <time>2021-02-28T08:15:20Z</time>
      </trkpt>
      <trkpt lat="43.0167" lon="2.97463">
        <ele>34.761</ele>
        <time>2021-02-28T08:15:47Z</time>
      </trkpt>
      <trkpt lat="43.01653" lon="2.97348">
        <ele>34.217</ele>
        <time>2021-02-28T08:16:16Z</time>
      </trkpt>
      <trkpt lat="43.01671" lon="2.97245">
        <ele>30.903</ele>
        <time>2021-02-28T08:16:30Z</time>
      </trkpt>
      <trkpt lat="43.01614" lon="2.97239">
        <ele>23.26</ele>
        <time>2021-02-28T08:16:46Z</time>
      </trkpt>
      <trkpt lat="43.01551" lon="2.97241">
        <ele>25.52</ele>
        <time>2021-02-28T08:17:07Z</time>
      </trkpt>
      <trkpt lat="43.01515" lon="2.9723">
        <ele>28.72</ele>
        <time>2021-02-28T08:17:23Z</time>
      </trkpt>
      <trkpt lat="43.01458" lon="2.9715">
        <ele>34.569</ele>
        <time>2021-02-28T08:17:56Z</time>
      </trkpt>
      <trkpt lat="43.01453" lon="2.97057">
        <ele>33.158</ele>
        <time>2021-02-28T08:18:17Z</time>
      </trkpt>
      <trkpt lat="43.01452" lon="2.96888">
        <ele>30.493</ele>
        <time>2021-02-28T08:18:40Z</time>
      </trkpt>
      <trkpt lat="43.01454" lon="2.96793">
        <ele>28.622</ele>
        <time>2021-02-28T08:18:54Z</time>
      </trkpt>
      <trkpt lat="43.01438" lon="2.96649">
        <ele>29.4</ele>
        <time>2021-02-28T08:19:24Z</time>
      </trkpt>
      <trkpt lat="43.01395" lon="2.96579">
        <ele>33.055</ele>
        <time>2021-02-28T08:19:44Z</time>
      </trkpt>
      <trkpt lat="43.0136" lon="2.96527">
        <ele>35.432</ele>
        <time>2021-02-28T08:20:03Z</time>
      </trkpt>
      <trkpt lat="43.01421" lon="2.96366">
        <ele>29.251</ele>
        <time>2021-02-28T08:20:31Z</time>
      </trkpt>
      <trkpt lat="43.01429" lon="2.96313">
        <ele>28.302</ele>
        <time>2021-02-28T08:20:38Z</time>
      </trkpt>
      <trkpt lat="43.01401" lon="2.96233">
        <ele>31.165</ele>
        <time>2021-02-28T08:21:02Z</time>
      </trkpt>
      <trkpt lat="43.014" lon="2.96178">
        <ele>31.855</ele>
        <time>2021-02-28T08:21:20Z</time>
      </trkpt>
      <trkpt lat="43.01484" lon="2.96091">
        <ele>30.835</ele>
        <time>2021-02-28T08:21:56Z</time>
      </trkpt>
      <trkpt lat="43.01587" lon="2.96083">
        <ele>24.046</ele>
        <time>2021-02-28T08:22:16Z</time>
      </trkpt>
      <trkpt lat="43.01645" lon="2.96106">
        <ele>19.517</ele>
        <time>2021-02-28T08:22:24Z</time>
      </trkpt>
      <trkpt lat="43.017" lon="2.96074">
        <ele>14.935</ele>
        <time>2021-02-28T08:22:32Z</time>
      </trkpt>
      <trkpt lat="43.0174" lon="2.96009">
        <ele>13.175</ele>
        <time>2021-02-28T08:22:40Z</time>
      </trkpt>
      <trkpt lat="43.01799" lon="2.9589">
        <ele>11.787</ele>
        <time>2021-02-28T08:23:02Z</time>
      </trkpt>
      <trkpt lat="43.01745" lon="2.95826">
        <ele>13.147</ele>
        <time>2021-02-28T08:23:30Z</time>
      </trkpt>
      <trkpt lat="43.01639" lon="2.95762">
        <ele>14.512</ele>
        <time>2021-02-28T08:24:03Z</time>
      </trkpt>
      <trkpt lat="43.01608" lon="2.95667">
        <ele>17.116</ele>
        <time>2021-02-28T08:24:28Z</time>
      </trkpt>
      <trkpt lat="43.01571" lon="2.95608">
        <ele>21.791</ele>
        <time>2021-02-28T08:24:49Z</time>
      </trkpt>
      <trkpt lat="43.01524" lon="2.95565">
        <ele>23.957</ele>
        <time>2021-02-28T08:25:14Z</time>
      </trkpt>
      <trkpt lat="43.015" lon="2.95534">
        <ele>27.406</ele>
        <time>2021-02-28T08:25:30Z</time>
      </trkpt>
      <trkpt lat="43.01431" lon="2.95413">
        <ele>39.218</ele>
        <time>2021-02-28T08:26:27Z</time>
      </trkpt>
      <trkpt lat="43.01397" lon="2.95347">
        <ele>44.894</ele>
        <time>2021-02-28T08:26:55Z</time>
      </trkpt>
      <trkpt lat="43.0139" lon="2.95257">
        <ele>47.616</ele>
        <time>2021-02-28T08:27:22Z</time>
      </trkpt>
      <trkpt lat="43.01389" lon="2.95233">
        <ele>48.041</ele>
        <time>2021-02-28T08:27:35Z</time>
      </trkpt>
      <trkpt lat="43.01403" lon="2.95143">
        <ele>48.194</ele>
        <time>2021-02-28T08:27:58Z</time>
      </trkpt>
      <trkpt lat="43.01404" lon="2.95064">
        <ele>47.151</ele>
        <time>2021-02-28T08:28:21Z</time>
      </trkpt>
      <trkpt lat="43.01338" lon="2.94797">
        <ele>59.851</ele>
        <time>2021-02-28T08:29:46Z</time>
      </trkpt>
      <trkpt lat="43.01288" lon="2.94599">
        <ele>68.808</ele>
        <time>2021-02-28T08:30:51Z</time>
      </trkpt>
      <trkpt lat="43.01262" lon="2.94522">
        <ele>70.297</ele>
        <time>2021-02-28T08:31:17Z</time>
      </trkpt>
      <trkpt lat="43.01172" lon="2.943">
        <ele>74.552</ele>
        <time>2021-02-28T08:32:31Z</time>
      </trkpt>
      <trkpt lat="43.01174" lon="2.94292">
        <ele>74.875</ele>
        <time>2021-02-28T08:32:41Z</time>
      </trkpt>
      <trkpt lat="43.01129" lon="2.94198">
        <ele>75.042</ele>
        <time>2021-02-28T08:35:56Z</time>
      </trkpt>
      <trkpt lat="43.01072" lon="2.9403">
        <ele>71.061</ele>
        <time>2021-02-28T08:36:24Z</time>
      </trkpt>
      <trkpt lat="43.01051" lon="2.93818">
        <ele>69.025</ele>
        <time>2021-02-28T08:36:51Z</time>
      </trkpt>
      <trkpt lat="43.01018" lon="2.93499">
        <ele>71.349</ele>
        <time>2021-02-28T08:37:44Z</time>
      </trkpt>
      <trkpt lat="43.00985" lon="2.93331">
        <ele>71.571</ele>
        <time>2021-02-28T08:38:15Z</time>
      </trkpt>
      <trkpt lat="43.0089" lon="2.93231">
        <ele>72.676</ele>
        <time>2021-02-28T08:38:42Z</time>
      </trkpt>
      <trkpt lat="43.00888" lon="2.93124">
        <ele>78.789</ele>
        <time>2021-02-28T08:39:08Z</time>
      </trkpt>
      <trkpt lat="43.00893" lon="2.93048">
        <ele>81.21</ele>
        <time>2021-02-28T08:39:30Z</time>
      </trkpt>
      <trkpt lat="43.00886" lon="2.93009">
        <ele>82.539</ele>
        <time>2021-02-28T08:39:45Z</time>
      </trkpt>
      <trkpt lat="43.00856" lon="2.92937">
        <ele>83.567</ele>
        <time>2021-02-28T08:40:05Z</time>
      </trkpt>
      <trkpt lat="43.00765" lon="2.92893">
        <ele>86.836</ele>
        <time>2021-02-28T08:40:40Z</time>
      </trkpt>
      <trkpt lat="43.00688" lon="2.92873">
        <ele>90.367</ele>
        <time>2021-02-28T08:41:07Z</time>
      </trkpt>
      <trkpt lat="43.00617" lon="2.929">
        <ele>94.096</ele>
        <time>2021-02-28T08:41:33Z</time>
      </trkpt>
      <trkpt lat="43.00555" lon="2.92985">
        <ele>97.266</ele>
        <time>2021-02-28T08:42:03Z</time>
      </trkpt>
      <trkpt lat="43.00554" lon="2.9302">
        <ele>99.391</ele>
        <time>2021-02-28T08:42:22Z</time>
      </trkpt>
      <trkpt lat="43.00566" lon="2.93011">
        <ele>99.91</ele>
        <time>2021-02-28T08:42:31Z</time>
      </trkpt>
      <trkpt lat="43.00586" lon="2.9299">
        <ele>100.691</ele>
        <time>2021-02-28T08:42:48Z</time>
      </trkpt>
      <trkpt lat="43.00635" lon="2.92956">
        <ele>101.242</ele>
        <time>2021-02-28T08:43:24Z</time>
      </trkpt>
      <trkpt lat="43.00656" lon="2.92982">
        <ele>103.264</ele>
        <time>2021-02-28T08:43:41Z</time>
      </trkpt>
      <trkpt lat="43.0068" lon="2.9302">
        <ele>107.394</ele>
        <time>2021-02-28T08:43:59Z</time>
      </trkpt>
      <trkpt lat="43.00699" lon="2.93046">
        <ele>108.25</ele>
        <time>2021-02-28T08:44:11Z</time>
      </trkpt>
      <trkpt lat="43.00706" lon="2.9307">
        <ele>109.378</ele>
        <time>2021-02-28T08:44:22Z</time>
      </trkpt>
      <trkpt lat="43.00712" lon="2.93083">
        <ele>109.823</ele>
        <time>2021-02-28T08:44:31Z</time>
      </trkpt>
      <trkpt lat="43.00753" lon="2.93119">
        <ele>106.565</ele>
        <time>2021-02-28T08:44:57Z</time>
      </trkpt>
      <trkpt lat="43.0076" lon="2.93158">
        <ele>104.51</ele>
        <time>2021-02-28T08:45:09Z</time>
      </trkpt>
      <trkpt lat="43.00762" lon="2.932">
        <ele>98.643</ele>
        <time>2021-02-28T08:45:24Z</time>
      </trkpt>
      <trkpt lat="43.00744" lon="2.93222">
        <ele>100.468</ele>
        <time>2021-02-28T08:45:39Z</time>
      </trkpt>
      <trkpt lat="43.00703" lon="2.93275">
        <ele>101.964</ele>
        <time>2021-02-28T08:45:59Z</time>
      </trkpt>
      <trkpt lat="43.00669" lon="2.93333">
        <ele>98.592</ele>
        <time>2021-02-28T08:46:15Z</time>
      </trkpt>
      <trkpt lat="43.00655" lon="2.93347">
        <ele>99.776</ele>
        <time>2021-02-28T08:46:26Z</time>
      </trkpt>
      <trkpt lat="43.00605" lon="2.93389">
        <ele>102.7</ele>
        <time>2021-02-28T08:46:47Z</time>
      </trkpt>
      <trkpt lat="43.00565" lon="2.9342">
        <ele>106.058</ele>
        <time>2021-02-28T08:47:07Z</time>
      </trkpt>
      <trkpt lat="43.00534" lon="2.93476">
        <ele>102.697</ele>
        <time>2021-02-28T08:47:29Z</time>
      </trkpt>
      <trkpt lat="43.00523" lon="2.93499">
        <ele>99.916</ele>
        <time>2021-02-28T08:47:35Z</time>
      </trkpt>
      <trkpt lat="43.00504" lon="2.9353">
        <ele>96.875</ele>
        <time>2021-02-28T08:47:47Z</time>
      </trkpt>
      <trkpt lat="43.00482" lon="2.93564">
        <ele>93.981</ele>
        <time>2021-02-28T08:47:58Z</time>
      </trkpt>
      <trkpt lat="43.00477" lon="2.93591">
        <ele>89.95</ele>
        <time>2021-02-28T08:48:09Z</time>
      </trkpt>
      <trkpt lat="43.00489" lon="2.93598">
        <ele>88.073</ele>
        <time>2021-02-28T08:48:16Z</time>
      </trkpt>
      <trkpt lat="43.00512" lon="2.93596">
        <ele>86.683</ele>
        <time>2021-02-28T08:48:29Z</time>
      </trkpt>
      <trkpt lat="43.0052" lon="2.93636">
        <ele>80.478</ele>
        <time>2021-02-28T08:48:37Z</time>
      </trkpt>
      <trkpt lat="43.00504" lon="2.93663">
        <ele>78.887</ele>
        <time>2021-02-28T08:48:43Z</time>
      </trkpt>
      <trkpt lat="43.00422" lon="2.93701">
        <ele>79.57</ele>
        <time>2021-02-28T08:49:11Z</time>
      </trkpt>
      <trkpt lat="43.00392" lon="2.93692">
        <ele>81.734</ele>
        <time>2021-02-28T08:49:27Z</time>
      </trkpt>
      <trkpt lat="43.00349" lon="2.93693">
        <ele>82.623</ele>
        <time>2021-02-28T08:49:46Z</time>
      </trkpt>
      <trkpt lat="43.00308" lon="2.93676">
        <ele>87.839</ele>
        <time>2021-02-28T08:50:10Z</time>
      </trkpt>
      <trkpt lat="43.00287" lon="2.93683">
        <ele>88.146</ele>
        <time>2021-02-28T08:50:23Z</time>
      </trkpt>
      <trkpt lat="43.00281" lon="2.937">
        <ele>85.242</ele>
        <time>2021-02-28T08:50:34Z</time>
      </trkpt>
      <trkpt lat="43.00244" lon="2.93721">
        <ele>84.522</ele>
        <time>2021-02-28T08:50:55Z</time>
      </trkpt>
      <trkpt lat="43.00242" lon="2.93751">
        <ele>80.758</ele>
        <time>2021-02-28T08:51:08Z</time>
      </trkpt>
      <trkpt lat="43.00227" lon="2.9374">
        <ele>83.16</ele>
        <time>2021-02-28T08:51:23Z</time>
      </trkpt>
      <trkpt lat="43.00206" lon="2.93708">
        <ele>83.434</ele>
        <time>2021-02-28T08:51:37Z</time>
      </trkpt>
      <trkpt lat="43.00165" lon="2.93704">
        <ele>78.255</ele>
        <time>2021-02-28T08:51:50Z</time>
      </trkpt>
      <trkpt lat="43.00143" lon="2.93677">
        <ele>77.21</ele>
        <time>2021-02-28T08:52:02Z</time>
      </trkpt>
      <trkpt lat="43.00114" lon="2.93688">
        <ele>73.296</ele>
        <time>2021-02-28T08:52:09Z</time>
      </trkpt>
      <trkpt lat="43.00067" lon="2.93686">
        <ele>71.236</ele>
        <time>2021-02-28T08:52:20Z</time>
      </trkpt>
      <trkpt lat="43.00061" lon="2.93631">
        <ele>73.963</ele>
        <time>2021-02-28T08:52:40Z</time>
      </trkpt>
      <trkpt lat="43.0006" lon="2.93585">
        <ele>78.689</ele>
        <time>2021-02-28T08:53:00Z</time>
      </trkpt>
      <trkpt lat="43.00079" lon="2.93529">
        <ele>83.442</ele>
        <time>2021-02-28T08:53:25Z</time>
      </trkpt>
      <trkpt lat="43.00112" lon="2.93412">
        <ele>89.808</ele>
        <time>2021-02-28T08:54:16Z</time>
      </trkpt>
      <trkpt lat="43.00114" lon="2.93346">
        <ele>93.698</ele>
        <time>2021-02-28T08:54:40Z</time>
      </trkpt>
      <trkpt lat="43.00094" lon="2.93335">
        <ele>92.684</ele>
        <time>2021-02-28T08:54:53Z</time>
      </trkpt>
      <trkpt lat="43.00045" lon="2.93316">
        <ele>95.111</ele>
        <time>2021-02-28T08:55:19Z</time>
      </trkpt>
      <trkpt lat="43.00009" lon="2.93399">
        <ele>101.005</ele>
        <time>2021-02-28T08:56:03Z</time>
      </trkpt>
      <trkpt lat="43.00002" lon="2.93409">
        <ele>101.296</ele>
        <time>2021-02-28T08:56:12Z</time>
      </trkpt>
      <trkpt lat="42.99977" lon="2.93438">
        <ele>102.793</ele>
        <time>2021-02-28T08:56:30Z</time>
      </trkpt>
      <trkpt lat="42.99961" lon="2.93458">
        <ele>103.102</ele>
        <time>2021-02-28T08:56:45Z</time>
      </trkpt>
      <trkpt lat="42.99967" lon="2.93397">
        <ele>99.538</ele>
        <time>2021-02-28T08:56:59Z</time>
      </trkpt>
      <trkpt lat="43.00008" lon="2.93315">
        <ele>92.834</ele>
        <time>2021-02-28T08:57:12Z</time>
      </trkpt>
      <trkpt lat="43.00018" lon="2.93271">
        <ele>87.819</ele>
        <time>2021-02-28T08:57:20Z</time>
      </trkpt>
      <trkpt lat="43.00028" lon="2.93241">
        <ele>87.582</ele>
        <time>2021-02-28T08:57:26Z</time>
      </trkpt>
      <trkpt lat="43.00034" lon="2.93193">
        <ele>87.094</ele>
        <time>2021-02-28T08:57:38Z</time>
      </trkpt>
      <trkpt lat="43.00038" lon="2.93177">
        <ele>87.479</ele>
        <time>2021-02-28T09:00:29Z</time>
      </trkpt>
      <trkpt lat="43.00039" lon="2.93143">
        <ele>86.857</ele>
        <time>2021-02-28T09:01:22Z</time>
      </trkpt>
      <trkpt lat="43.00046" lon="2.93098">
        <ele>88.022</ele>
        <time>2021-02-28T09:01:37Z</time>
      </trkpt>
      <trkpt lat="43.00058" lon="2.93074">
        <ele>89.831</ele>
        <time>2021-02-28T09:01:47Z</time>
      </trkpt>
      <trkpt lat="43.00066" lon="2.93031">
        <ele>90.863</ele>
        <time>2021-02-28T09:02:04Z</time>
      </trkpt>
      <trkpt lat="43.00087" lon="2.9301">
        <ele>91.798</ele>
        <time>2021-02-28T09:02:19Z</time>
      </trkpt>
      <trkpt lat="43.0015" lon="2.92977">
        <ele>94.189</ele>
        <time>2021-02-28T09:02:40Z</time>
      </trkpt>
      <trkpt lat="43.00169" lon="2.92959">
        <ele>95.317</ele>
        <time>2021-02-28T09:02:54Z</time>
      </trkpt>
      <trkpt lat="43.00181" lon="2.92954">
        <ele>97.68</ele>
        <time>2021-02-28T09:03:08Z</time>
      </trkpt>
      <trkpt lat="43.00191" lon="2.92938">
        <ele>98.189</ele>
        <time>2021-02-28T09:03:28Z</time>
      </trkpt>
      <trkpt lat="43.00211" lon="2.92924">
        <ele>101.583</ele>
        <time>2021-02-28T09:04:10Z</time>
      </trkpt>
      <trkpt lat="43.00236" lon="2.929">
        <ele>105.669</ele>
        <time>2021-02-28T09:04:31Z</time>
      </trkpt>
      <trkpt lat="43.00248" lon="2.92868">
        <ele>109.304</ele>
        <time>2021-02-28T09:04:54Z</time>
      </trkpt>
      <trkpt lat="43.00256" lon="2.9286">
        <ele>111.142</ele>
        <time>2021-02-28T09:05:31Z</time>
      </trkpt>
      <trkpt lat="43.00238" lon="2.92883">
        <ele>106.504</ele>
        <time>2021-02-28T09:05:51Z</time>
      </trkpt>
      <trkpt lat="43.00238" lon="2.92886">
        <ele>106.391</ele>
        <time>2021-02-28T09:09:39Z</time>
      </trkpt>
      <trkpt lat="43.00248" lon="2.92871">
        <ele>109.16</ele>
        <time>2021-02-28T09:09:52Z</time>
      </trkpt>
      <trkpt lat="43.00252" lon="2.92863">
        <ele>110.262</ele>
        <time>2021-02-28T09:10:04Z</time>
      </trkpt>
      <trkpt lat="43.00262" lon="2.92861">
        <ele>112.203</ele>
        <time>2021-02-28T09:10:19Z</time>
      </trkpt>
      <trkpt lat="43.00269" lon="2.92836">
        <ele>114.124</ele>
        <time>2021-02-28T09:10:38Z</time>
      </trkpt>
      <trkpt lat="43.00277" lon="2.92817">
        <ele>115.935</ele>
        <time>2021-02-28T09:10:52Z</time>
      </trkpt>
      <trkpt lat="43.00295" lon="2.92801">
        <ele>117.477</ele>
        <time>2021-02-28T09:11:08Z</time>
      </trkpt>
      <trkpt lat="43.0032" lon="2.92748">
        <ele>118.659</ele>
        <time>2021-02-28T09:11:25Z</time>
      </trkpt>
      <trkpt lat="43.0033" lon="2.927">
        <ele>118.311</ele>
        <time>2021-02-28T09:11:39Z</time>
      </trkpt>
      <trkpt lat="43.00351" lon="2.92671">
        <ele>119.326</ele>
        <time>2021-02-28T09:11:55Z</time>
      </trkpt>
      <trkpt lat="43.00389" lon="2.92644">
        <ele>118.384</ele>
        <time>2021-02-28T09:12:09Z</time>
      </trkpt>
      <trkpt lat="43.00428" lon="2.92619">
        <ele>115.982</ele>
        <time>2021-02-28T09:12:20Z</time>
      </trkpt>
      <trkpt lat="43.00457" lon="2.9262">
        <ele>117.194</ele>
        <time>2021-02-28T09:12:34Z</time>
      </trkpt>
      <trkpt lat="43.00489" lon="2.92595">
        <ele>116.644</ele>
        <time>2021-02-28T09:12:50Z</time>
      </trkpt>
      <trkpt lat="43.00509" lon="2.92596">
        <ele>116.38</ele>
        <time>2021-02-28T09:13:00Z</time>
      </trkpt>
      <trkpt lat="43.00563" lon="2.92485">
        <ele>113.693</ele>
        <time>2021-02-28T09:13:29Z</time>
      </trkpt>
      <trkpt lat="43.0064" lon="2.92387">
        <ele>115.953</ele>
        <time>2021-02-28T09:13:59Z</time>
      </trkpt>
      <trkpt lat="43.00673" lon="2.92317">
        <ele>120.903</ele>
        <time>2021-02-28T09:14:22Z</time>
      </trkpt>
      <trkpt lat="43.00706" lon="2.92218">
        <ele>124.093</ele>
        <time>2021-02-28T09:14:53Z</time>
      </trkpt>
      <trkpt lat="43.00744" lon="2.92167">
        <ele>128.795</ele>
        <time>2021-02-28T09:15:13Z</time>
      </trkpt>
      <trkpt lat="43.00766" lon="2.92085">
        <ele>133.306</ele>
        <time>2021-02-28T09:15:37Z</time>
      </trkpt>
      <trkpt lat="43.00824" lon="2.92049">
        <ele>135.584</ele>
        <time>2021-02-28T09:16:03Z</time>
      </trkpt>
      <trkpt lat="43.00875" lon="2.92041">
        <ele>137.719</ele>
        <time>2021-02-28T09:16:22Z</time>
      </trkpt>
      <trkpt lat="43.00916" lon="2.91957">
        <ele>142.997</ele>
        <time>2021-02-28T09:16:50Z</time>
      </trkpt>
      <trkpt lat="43.00905" lon="2.91851">
        <ele>147.796</ele>
        <time>2021-02-28T09:17:19Z</time>
      </trkpt>
      <trkpt lat="43.00894" lon="2.91769">
        <ele>151.246</ele>
        <time>2021-02-28T09:17:42Z</time>
      </trkpt>
      <trkpt lat="43.00846" lon="2.91707">
        <ele>153.201</ele>
        <time>2021-02-28T09:18:07Z</time>
      </trkpt>
      <trkpt lat="43.00722" lon="2.91666">
        <ele>158.422</ele>
        <time>2021-02-28T09:18:46Z</time>
      </trkpt>
      <trkpt lat="43.00579" lon="2.9162">
        <ele>156.316</ele>
        <time>2021-02-28T09:19:24Z</time>
      </trkpt>
      <trkpt lat="43.00529" lon="2.91561">
        <ele>158.873</ele>
        <time>2021-02-28T09:19:45Z</time>
      </trkpt>
      <trkpt lat="43.00477" lon="2.91516">
        <ele>160.558</ele>
        <time>2021-02-28T09:20:06Z</time>
      </trkpt>
      <trkpt lat="43.00443" lon="2.91416">
        <ele>165.734</ele>
        <time>2021-02-28T09:20:34Z</time>
      </trkpt>
      <trkpt lat="43.00407" lon="2.9132">
        <ele>171.589</ele>
        <time>2021-02-28T09:21:02Z</time>
      </trkpt>
      <trkpt lat="43.00352" lon="2.9126">
        <ele>177.968</ele>
        <time>2021-02-28T09:21:27Z</time>
      </trkpt>
      <trkpt lat="43.00311" lon="2.91203">
        <ele>179.244</ele>
        <time>2021-02-28T09:21:48Z</time>
      </trkpt>
      <trkpt lat="43.00262" lon="2.91114">
        <ele>182.338</ele>
        <time>2021-02-28T09:22:17Z</time>
      </trkpt>
      <trkpt lat="43.0024" lon="2.91052">
        <ele>185.433</ele>
        <time>2021-02-28T09:22:36Z</time>
      </trkpt>
      <trkpt lat="43.0019" lon="2.91034">
        <ele>189.055</ele>
        <time>2021-02-28T09:22:56Z</time>
      </trkpt>
      <trkpt lat="43.00135" lon="2.91017">
        <ele>195.692</ele>
        <time>2021-02-28T09:23:18Z</time>
      </trkpt>
      <trkpt lat="43.00097" lon="2.90997">
        <ele>198.062</ele>
        <time>2021-02-28T09:23:35Z</time>
      </trkpt>
      <trkpt lat="43.00014" lon="2.90945">
        <ele>201.399</ele>
        <time>2021-02-28T09:24:12Z</time>
      </trkpt>
      <trkpt lat="42.99981" lon="2.90915">
        <ele>204.841</ele>
        <time>2021-02-28T09:24:30Z</time>
      </trkpt>
      <trkpt lat="42.99948" lon="2.90891">
        <ele>208.509</ele>
        <time>2021-02-28T09:24:48Z</time>
      </trkpt>
      <trkpt lat="42.99902" lon="2.9086">
        <ele>216.179</ele>
        <time>2021-02-28T09:25:12Z</time>
      </trkpt>
      <trkpt lat="42.99872" lon="2.90842">
        <ele>221.3</ele>
        <time>2021-02-28T09:25:27Z</time>
      </trkpt>
      <trkpt lat="42.99829" lon="2.90819">
        <ele>223.455</ele>
        <time>2021-02-28T09:25:49Z</time>
      </trkpt>
      <trkpt lat="42.9973" lon="2.90818">
        <ele>223.414</ele>
        <time>2021-02-28T09:26:26Z</time>
      </trkpt>
      <trkpt lat="42.99693" lon="2.90822">
        <ele>224.02</ele>
        <time>2021-02-28T09:26:48Z</time>
      </trkpt>
      <trkpt lat="42.99694" lon="2.90901">
        <ele>223.973</ele>
        <time>2021-02-28T09:27:04Z</time>
      </trkpt>
      <trkpt lat="42.99681" lon="2.91011">
        <ele>224.39</ele>
        <time>2021-02-28T09:27:26Z</time>
      </trkpt>
      <trkpt lat="42.99624" lon="2.91125">
        <ele>223.44</ele>
        <time>2021-02-28T09:27:58Z</time>
      </trkpt>
      <trkpt lat="42.99594" lon="2.91171">
        <ele>218.693</ele>
        <time>2021-02-28T09:28:17Z</time>
      </trkpt>
      <trkpt lat="42.99609" lon="2.91223">
        <ele>218.305</ele>
        <time>2021-02-28T09:28:34Z</time>
      </trkpt>
      <trkpt lat="42.99582" lon="2.91286">
        <ele>213.142</ele>
        <time>2021-02-28T09:29:07Z</time>
      </trkpt>
      <trkpt lat="42.99549" lon="2.91343">
        <ele>204.233</ele>
        <time>2021-02-28T09:29:20Z</time>
      </trkpt>
      <trkpt lat="42.99548" lon="2.91384">
        <ele>200.736</ele>
        <time>2021-02-28T09:29:27Z</time>
      </trkpt>
      <trkpt lat="42.99568" lon="2.91446">
        <ele>196.021</ele>
        <time>2021-02-28T09:29:37Z</time>
      </trkpt>
      <trkpt lat="42.99566" lon="2.91474">
        <ele>193.581</ele>
        <time>2021-02-28T09:29:44Z</time>
      </trkpt>
      <trkpt lat="42.99588" lon="2.91586">
        <ele>185.898</ele>
        <time>2021-02-28T09:30:16Z</time>
      </trkpt>
      <trkpt lat="42.99643" lon="2.9167">
        <ele>181.051</ele>
        <time>2021-02-28T09:30:34Z</time>
      </trkpt>
      <trkpt lat="42.9965" lon="2.91715">
        <ele>176.809</ele>
        <time>2021-02-28T09:30:42Z</time>
      </trkpt>
      <trkpt lat="42.99646" lon="2.91749">
        <ele>172.457</ele>
        <time>2021-02-28T09:30:50Z</time>
      </trkpt>
      <trkpt lat="42.9967" lon="2.91803">
        <ele>167.156</ele>
        <time>2021-02-28T09:31:00Z</time>
      </trkpt>
      <trkpt lat="42.9971" lon="2.91834">
        <ele>162.324</ele>
        <time>2021-02-28T09:31:11Z</time>
      </trkpt>
      <trkpt lat="42.99739" lon="2.91849">
        <ele>157.072</ele>
        <time>2021-02-28T09:31:37Z</time>
      </trkpt>
      <trkpt lat="42.99744" lon="2.91883">
        <ele>148.975</ele>
        <time>2021-02-28T09:31:46Z</time>
      </trkpt>
      <trkpt lat="42.99727" lon="2.9191">
        <ele>144.31</ele>
        <time>2021-02-28T09:31:54Z</time>
      </trkpt>
      <trkpt lat="42.99708" lon="2.9192">
        <ele>145.098</ele>
        <time>2021-02-28T09:32:01Z</time>
      </trkpt>
      <trkpt lat="42.99682" lon="2.91929">
        <ele>144.431</ele>
        <time>2021-02-28T09:32:13Z</time>
      </trkpt>
      <trkpt lat="42.99677" lon="2.91923">
        <ele>144.204</ele>
        <time>2021-02-28T09:32:33Z</time>
      </trkpt>
      <trkpt lat="42.99652" lon="2.919">
        <ele>145.053</ele>
        <time>2021-02-28T09:33:11Z</time>
      </trkpt>
      <trkpt lat="42.99633" lon="2.91919">
        <ele>138.247</ele>
        <time>2021-02-28T09:33:19Z</time>
      </trkpt>
      <trkpt lat="42.99612" lon="2.91927">
        <ele>133.28</ele>
        <time>2021-02-28T09:33:25Z</time>
      </trkpt>
      <trkpt lat="42.99587" lon="2.91948">
        <ele>133.28</ele>
        <time>2021-02-28T09:33:36Z</time>
      </trkpt>
      <trkpt lat="42.99548" lon="2.91998">
        <ele>134.78</ele>
        <time>2021-02-28T09:33:59Z</time>
      </trkpt>
      <trkpt lat="42.99538" lon="2.91995">
        <ele>135.903</ele>
        <time>2021-02-28T09:34:23Z</time>
      </trkpt>
      <trkpt lat="42.99528" lon="2.92008">
        <ele>137.131</ele>
        <time>2021-02-28T09:34:39Z</time>
      </trkpt>
      <trkpt lat="42.99523" lon="2.92027">
        <ele>137.758</ele>
        <time>2021-02-28T09:35:02Z</time>
      </trkpt>
      <trkpt lat="42.9953" lon="2.92051">
        <ele>139.029</ele>
        <time>2021-02-28T09:35:13Z</time>
      </trkpt>
      <trkpt lat="42.9955" lon="2.92087">
        <ele>141.731</ele>
        <time>2021-02-28T09:35:31Z</time>
      </trkpt>
      <trkpt lat="42.99552" lon="2.92117">
        <ele>143.023</ele>
        <time>2021-02-28T09:35:45Z</time>
      </trkpt>
      <trkpt lat="42.99557" lon="2.92138">
        <ele>143.13</ele>
        <time>2021-02-28T09:35:53Z</time>
      </trkpt>
      <trkpt lat="42.99543" lon="2.92237">
        <ele>141.841</ele>
        <time>2021-02-28T09:36:14Z</time>
      </trkpt>
      <trkpt lat="42.99531" lon="2.92299">
        <ele>140.583</ele>
        <time>2021-02-28T09:36:23Z</time>
      </trkpt>
      <trkpt lat="42.99521" lon="2.92377">
        <ele>140.134</ele>
        <time>2021-02-28T09:36:35Z</time>
      </trkpt>
      <trkpt lat="42.99509" lon="2.92448">
        <ele>136.498</ele>
        <time>2021-02-28T09:36:48Z</time>
      </trkpt>
      <trkpt lat="42.99504" lon="2.92502">
        <ele>135.55</ele>
        <time>2021-02-28T09:36:57Z</time>
      </trkpt>
      <trkpt lat="42.99494" lon="2.92587">
        <ele>133.17</ele>
        <time>2021-02-28T09:37:12Z</time>
      </trkpt>
      <trkpt lat="42.99502" lon="2.92641">
        <ele>130.021</ele>
        <time>2021-02-28T09:37:20Z</time>
      </trkpt>
      <trkpt lat="42.99491" lon="2.92706">
        <ele>122.122</ele>
        <time>2021-02-28T09:37:29Z</time>
      </trkpt>
      <trkpt lat="42.99479" lon="2.92734">
        <ele>120.62</ele>
        <time>2021-02-28T09:37:35Z</time>
      </trkpt>
      <trkpt lat="42.9946" lon="2.92718">
        <ele>118.897</ele>
        <time>2021-02-28T09:37:42Z</time>
      </trkpt>
      <trkpt lat="42.99452" lon="2.92684">
        <ele>118.778</ele>
        <time>2021-02-28T09:37:51Z</time>
      </trkpt>
      <trkpt lat="42.99438" lon="2.92665">
        <ele>115.24</ele>
        <time>2021-02-28T09:38:02Z</time>
      </trkpt>
      <trkpt lat="42.99433" lon="2.92685">
        <ele>113.085</ele>
        <time>2021-02-28T09:38:14Z</time>
      </trkpt>
      <trkpt lat="42.99432" lon="2.92727">
        <ele>110.72</ele>
        <time>2021-02-28T09:41:05Z</time>
      </trkpt>
      <trkpt lat="42.99397" lon="2.92745">
        <ele>106.608</ele>
        <time>2021-02-28T09:41:20Z</time>
      </trkpt>
      <trkpt lat="42.9937" lon="2.92752">
        <ele>107.461</ele>
        <time>2021-02-28T09:41:37Z</time>
      </trkpt>
      <trkpt lat="42.99362" lon="2.92778">
        <ele>106.633</ele>
        <time>2021-02-28T09:41:46Z</time>
      </trkpt>
      <trkpt lat="42.99363" lon="2.92773">
        <ele>107.111</ele>
        <time>2021-02-28T09:42:26Z</time>
      </trkpt>
      <trkpt lat="42.99365" lon="2.92739">
        <ele>108.68</ele>
        <time>2021-02-28T09:42:53Z</time>
      </trkpt>
      <trkpt lat="42.9936" lon="2.92726">
        <ele>109.868</ele>
        <time>2021-02-28T09:43:06Z</time>
      </trkpt>
      <trkpt lat="42.99349" lon="2.92727">
        <ele>111.293</ele>
        <time>2021-02-28T09:43:17Z</time>
      </trkpt>
      <trkpt lat="42.99326" lon="2.9274">
        <ele>113.678</ele>
        <time>2021-02-28T09:43:39Z</time>
      </trkpt>
      <trkpt lat="42.99309" lon="2.92753">
        <ele>116.012</ele>
        <time>2021-02-28T09:44:00Z</time>
      </trkpt>
      <trkpt lat="42.99292" lon="2.92779">
        <ele>118.869</ele>
        <time>2021-02-28T09:44:14Z</time>
      </trkpt>
      <trkpt lat="42.99248" lon="2.92865">
        <ele>109.963</ele>
        <time>2021-02-28T09:44:34Z</time>
      </trkpt>
      <trkpt lat="42.99212" lon="2.92924">
        <ele>101.664</ele>
        <time>2021-02-28T09:44:44Z</time>
      </trkpt>
      <trkpt lat="42.99191" lon="2.92974">
        <ele>100.613</ele>
        <time>2021-02-28T09:44:56Z</time>
      </trkpt>
      <trkpt lat="42.9918" lon="2.93023">
        <ele>98.614</ele>
        <time>2021-02-28T09:45:04Z</time>
      </trkpt>
      <trkpt lat="42.99163" lon="2.93058">
        <ele>96.082</ele>
        <time>2021-02-28T09:45:10Z</time>
      </trkpt>
      <trkpt lat="42.99142" lon="2.93138">
        <ele>90.719</ele>
        <time>2021-02-28T09:45:19Z</time>
      </trkpt>
      <trkpt lat="42.99123" lon="2.93202">
        <ele>87.629</ele>
        <time>2021-02-28T09:45:26Z</time>
      </trkpt>
      <trkpt lat="42.99102" lon="2.93356">
        <ele>86.011</ele>
        <time>2021-02-28T09:45:59Z</time>
      </trkpt>
      <trkpt lat="42.99108" lon="2.93434">
        <ele>81.156</ele>
        <time>2021-02-28T09:46:10Z</time>
      </trkpt>
      <trkpt lat="42.99103" lon="2.93495">
        <ele>80.517</ele>
        <time>2021-02-28T09:46:17Z</time>
      </trkpt>
      <trkpt lat="42.99083" lon="2.93543">
        <ele>78.674</ele>
        <time>2021-02-28T09:46:25Z</time>
      </trkpt>
      <trkpt lat="42.9907" lon="2.93555">
        <ele>76.951</ele>
        <time>2021-02-28T09:46:31Z</time>
      </trkpt>
      <trkpt lat="42.99041" lon="2.93533">
        <ele>73.226</ele>
        <time>2021-02-28T09:46:38Z</time>
      </trkpt>
      <trkpt lat="42.99006" lon="2.9354">
        <ele>69.708</ele>
        <time>2021-02-28T09:46:48Z</time>
      </trkpt>
      <trkpt lat="42.98969" lon="2.93585">
        <ele>68.24</ele>
        <time>2021-02-28T09:47:10Z</time>
      </trkpt>
      <trkpt lat="42.98929" lon="2.93595">
        <ele>70.659</ele>
        <time>2021-02-28T09:47:29Z</time>
      </trkpt>
      <trkpt lat="42.98905" lon="2.93624">
        <ele>73.225</ele>
        <time>2021-02-28T09:47:49Z</time>
      </trkpt>
      <trkpt lat="42.98889" lon="2.93627">
        <ele>75.285</ele>
        <time>2021-02-28T09:48:09Z</time>
      </trkpt>
      <trkpt lat="42.98865" lon="2.93649">
        <ele>77.218</ele>
        <time>2021-02-28T09:48:33Z</time>
      </trkpt>
      <trkpt lat="42.9881" lon="2.93694">
        <ele>78.28</ele>
        <time>2021-02-28T09:49:00Z</time>
      </trkpt>
      <trkpt lat="42.98792" lon="2.93707">
        <ele>78.736</ele>
        <time>2021-02-28T09:49:11Z</time>
      </trkpt>
      <trkpt lat="42.988" lon="2.93678">
        <ele>81.672</ele>
        <time>2021-02-28T09:49:26Z</time>
      </trkpt>
      <trkpt lat="42.98806" lon="2.93661">
        <ele>84.607</ele>
        <time>2021-02-28T09:49:37Z</time>
      </trkpt>
      <trkpt lat="42.98824" lon="2.93642">
        <ele>85.676</ele>
        <time>2021-02-28T09:49:50Z</time>
      </trkpt>
      <trkpt lat="42.98835" lon="2.93622">
        <ele>87.379</ele>
        <time>2021-02-28T09:50:01Z</time>
      </trkpt>
      <trkpt lat="42.98847" lon="2.93609">
        <ele>86.655</ele>
        <time>2021-02-28T09:50:10Z</time>
      </trkpt>
      <trkpt lat="42.98861" lon="2.93583">
        <ele>86.823</ele>
        <time>2021-02-28T09:50:26Z</time>
      </trkpt>
      <trkpt lat="42.98864" lon="2.93573">
        <ele>87.372</ele>
        <time>2021-02-28T09:50:35Z</time>
      </trkpt>
      <trkpt lat="42.9886" lon="2.93569">
        <ele>88.84</ele>
        <time>2021-02-28T09:50:53Z</time>
      </trkpt>
      <trkpt lat="42.98832" lon="2.93572">
        <ele>93.903</ele>
        <time>2021-02-28T09:51:36Z</time>
      </trkpt>
      <trkpt lat="42.98818" lon="2.93553">
        <ele>96.191</ele>
        <time>2021-02-28T09:52:10Z</time>
      </trkpt>
      <trkpt lat="42.98806" lon="2.93547">
        <ele>96.024</ele>
        <time>2021-02-28T09:52:17Z</time>
      </trkpt>
      <trkpt lat="42.98723" lon="2.93571">
        <ele>94.337</ele>
        <time>2021-02-28T09:52:44Z</time>
      </trkpt>
      <trkpt lat="42.98684" lon="2.93605">
        <ele>93.564</ele>
        <time>2021-02-28T09:52:56Z</time>
      </trkpt>
      <trkpt lat="42.98656" lon="2.93649">
        <ele>90.272</ele>
        <time>2021-02-28T09:53:03Z</time>
      </trkpt>
      <trkpt lat="42.9865" lon="2.93669">
        <ele>90.086</ele>
        <time>2021-02-28T09:53:17Z</time>
      </trkpt>
      <trkpt lat="42.98654" lon="2.9368">
        <ele>91.543</ele>
        <time>2021-02-28T09:53:32Z</time>
      </trkpt>
      <trkpt lat="42.98655" lon="2.93727">
        <ele>87.622</ele>
        <time>2021-02-28T09:53:47Z</time>
      </trkpt>
      <trkpt lat="42.98627" lon="2.93728">
        <ele>80.802</ele>
        <time>2021-02-28T09:53:53Z</time>
      </trkpt>
      <trkpt lat="42.98612" lon="2.93752">
        <ele>76.506</ele>
        <time>2021-02-28T09:54:53Z</time>
      </trkpt>
      <trkpt lat="42.98554" lon="2.93784">
        <ele>79.764</ele>
        <time>2021-02-28T09:56:12Z</time>
      </trkpt>
      <trkpt lat="42.98547" lon="2.93718">
        <ele>80.559</ele>
        <time>2021-02-28T09:56:38Z</time>
      </trkpt>
      <trkpt lat="42.98522" lon="2.93688">
        <ele>82.925</ele>
        <time>2021-02-28T09:56:56Z</time>
      </trkpt>
      <trkpt lat="42.98518" lon="2.93653">
        <ele>83.999</ele>
        <time>2021-02-28T09:57:09Z</time>
      </trkpt>
      <trkpt lat="42.98515" lon="2.93633">
        <ele>85.564</ele>
        <time>2021-02-28T09:57:22Z</time>
      </trkpt>
      <trkpt lat="42.98486" lon="2.93609">
        <ele>90.115</ele>
        <time>2021-02-28T09:57:51Z</time>
      </trkpt>
      <trkpt lat="42.98476" lon="2.93599">
        <ele>92.563</ele>
        <time>2021-02-28T09:58:08Z</time>
      </trkpt>
      <trkpt lat="42.9846" lon="2.93588">
        <ele>96.175</ele>
        <time>2021-02-28T09:58:54Z</time>
      </trkpt>
      <trkpt lat="42.98431" lon="2.93573">
        <ele>101.451</ele>
        <time>2021-02-28T09:59:12Z</time>
      </trkpt>
      <trkpt lat="42.98394" lon="2.93564">
        <ele>99.781</ele>
        <time>2021-02-28T09:59:29Z</time>
      </trkpt>
      <trkpt lat="42.98416" lon="2.93545">
        <ele>102.561</ele>
        <time>2021-02-28T09:59:42Z</time>
      </trkpt>
      <trkpt lat="42.98444" lon="2.93517">
        <ele>101.552</ele>
        <time>2021-02-28T10:00:00Z</time>
      </trkpt>
      <trkpt lat="42.98451" lon="2.93487">
        <ele>99.268</ele>
        <time>2021-02-28T10:00:20Z</time>
      </trkpt>
      <trkpt lat="42.98427" lon="2.93478">
        <ele>98.499</ele>
        <time>2021-02-28T10:00:27Z</time>
      </trkpt>
      <trkpt lat="42.98399" lon="2.93472">
        <ele>96.361</ele>
        <time>2021-02-28T10:00:33Z</time>
      </trkpt>
      <trkpt lat="42.98387" lon="2.93447">
        <ele>95.081</ele>
        <time>2021-02-28T10:00:43Z</time>
      </trkpt>
      <trkpt lat="42.98382" lon="2.93434">
        <ele>94.54</ele>
        <time>2021-02-28T10:00:55Z</time>
      </trkpt>
      <trkpt lat="42.9841" lon="2.93361">
        <ele>97.057</ele>
        <time>2021-02-28T10:01:27Z</time>
      </trkpt>
      <trkpt lat="42.98415" lon="2.93332">
        <ele>99.998</ele>
        <time>2021-02-28T10:01:41Z</time>
      </trkpt>
      <trkpt lat="42.98406" lon="2.93325">
        <ele>99.531</ele>
        <time>2021-02-28T10:01:51Z</time>
      </trkpt>
      <trkpt lat="42.98406" lon="2.93311">
        <ele>100.547</ele>
        <time>2021-02-28T10:02:31Z</time>
      </trkpt>
      <trkpt lat="42.98392" lon="2.93307">
        <ele>98.348</ele>
        <time>2021-02-28T10:02:41Z</time>
      </trkpt>
      <trkpt lat="42.9837" lon="2.93308">
        <ele>100.588</ele>
        <time>2021-02-28T10:03:10Z</time>
      </trkpt>
      <trkpt lat="42.98362" lon="2.93312">
        <ele>101.129</ele>
        <time>2021-02-28T10:03:26Z</time>
      </trkpt>
      <trkpt lat="42.98352" lon="2.93336">
        <ele>99.619</ele>
        <time>2021-02-28T10:03:49Z</time>
      </trkpt>
      <trkpt lat="42.98338" lon="2.93356">
        <ele>97.724</ele>
        <time>2021-02-28T10:03:58Z</time>
      </trkpt>
      <trkpt lat="42.98325" lon="2.93358">
        <ele>97.751</ele>
        <time>2021-02-28T10:04:18Z</time>
      </trkpt>
      <trkpt lat="42.98263" lon="2.93319">
        <ele>99.425</ele>
        <time>2021-02-28T10:04:48Z</time>
      </trkpt>
      <trkpt lat="42.98263" lon="2.93322">
        <ele>98.937</ele>
        <time>2021-02-28T10:07:17Z</time>
      </trkpt>
      <trkpt lat="42.98269" lon="2.93307">
        <ele>101.829</ele>
        <time>2021-02-28T10:07:56Z</time>
      </trkpt>
      <trkpt lat="42.98271" lon="2.93283">
        <ele>104.66</ele>
        <time>2021-02-28T10:08:15Z</time>
      </trkpt>
      <trkpt lat="42.98282" lon="2.93273">
        <ele>107.682</ele>
        <time>2021-02-28T10:08:39Z</time>
      </trkpt>
      <trkpt lat="42.98288" lon="2.93261">
        <ele>109.982</ele>
        <time>2021-02-28T10:08:50Z</time>
      </trkpt>
      <trkpt lat="42.9829" lon="2.93237">
        <ele>113.146</ele>
        <time>2021-02-28T10:09:26Z</time>
      </trkpt>
      <trkpt lat="42.98285" lon="2.93211">
        <ele>115.659</ele>
        <time>2021-02-28T10:09:37Z</time>
      </trkpt>
      <trkpt lat="42.98252" lon="2.93147">
        <ele>114.925</ele>
        <time>2021-02-28T10:09:53Z</time>
      </trkpt>
      <trkpt lat="42.98254" lon="2.93125">
        <ele>117.287</ele>
        <time>2021-02-28T10:10:06Z</time>
      </trkpt>
      <trkpt lat="42.98254" lon="2.93107">
        <ele>118.265</ele>
        <time>2021-02-28T10:10:15Z</time>
      </trkpt>
      <trkpt lat="42.98246" lon="2.93082">
        <ele>118.223</ele>
        <time>2021-02-28T10:10:26Z</time>
      </trkpt>
      <trkpt lat="42.98235" lon="2.93055">
        <ele>118.638</ele>
        <time>2021-02-28T10:10:36Z</time>
      </trkpt>
      <trkpt lat="42.98238" lon="2.93035">
        <ele>121.066</ele>
        <time>2021-02-28T10:10:52Z</time>
      </trkpt>
      <trkpt lat="42.98239" lon="2.93015">
        <ele>123.018</ele>
        <time>2021-02-28T10:11:05Z</time>
      </trkpt>
      <trkpt lat="42.98244" lon="2.92993">
        <ele>124.969</ele>
        <time>2021-02-28T10:11:18Z</time>
      </trkpt>
      <trkpt lat="42.98241" lon="2.92959">
        <ele>126.676</ele>
        <time>2021-02-28T10:11:36Z</time>
      </trkpt>
      <trkpt lat="42.9825" lon="2.92942">
        <ele>126.692</ele>
        <time>2021-02-28T10:11:51Z</time>
      </trkpt>
      <trkpt lat="42.98277" lon="2.92918">
        <ele>126.506</ele>
        <time>2021-02-28T10:12:09Z</time>
      </trkpt>
      <trkpt lat="42.98296" lon="2.9291">
        <ele>125.416</ele>
        <time>2021-02-28T10:12:17Z</time>
      </trkpt>
      <trkpt lat="42.9834" lon="2.92953">
        <ele>119.587</ele>
        <time>2021-02-28T10:12:32Z</time>
      </trkpt>
      <trkpt lat="42.98369" lon="2.92971">
        <ele>117.945</ele>
        <time>2021-02-28T10:12:44Z</time>
      </trkpt>
      <trkpt lat="42.98386" lon="2.92972">
        <ele>117.935</ele>
        <time>2021-02-28T10:12:51Z</time>
      </trkpt>
      <trkpt lat="42.98398" lon="2.92975">
        <ele>118.489</ele>
        <time>2021-02-28T10:13:05Z</time>
      </trkpt>
      <trkpt lat="42.98405" lon="2.92973">
        <ele>119.372</ele>
        <time>2021-02-28T10:13:18Z</time>
      </trkpt>
      <trkpt lat="42.98455" lon="2.9299">
        <ele>121.893</ele>
        <time>2021-02-28T10:13:54Z</time>
      </trkpt>
      <trkpt lat="42.98473" lon="2.92965">
        <ele>125.24</ele>
        <time>2021-02-28T10:14:10Z</time>
      </trkpt>
      <trkpt lat="42.98495" lon="2.92974">
        <ele>123.548</ele>
        <time>2021-02-28T10:14:25Z</time>
      </trkpt>
      <trkpt lat="42.98519" lon="2.92962">
        <ele>122.369</ele>
        <time>2021-02-28T10:14:38Z</time>
      </trkpt>
      <trkpt lat="42.98545" lon="2.92945">
        <ele>117.391</ele>
        <time>2021-02-28T10:14:48Z</time>
      </trkpt>
      <trkpt lat="42.98579" lon="2.92982">
        <ele>106.845</ele>
        <time>2021-02-28T10:14:58Z</time>
      </trkpt>
      <trkpt lat="42.98607" lon="2.92988">
        <ele>101.755</ele>
        <time>2021-02-28T10:15:07Z</time>
      </trkpt>
      <trkpt lat="42.98625" lon="2.93052">
        <ele>102.04</ele>
        <time>2021-02-28T10:15:20Z</time>
      </trkpt>
      <trkpt lat="42.98641" lon="2.93056">
        <ele>100.385</ele>
        <time>2021-02-28T10:15:29Z</time>
      </trkpt>
      <trkpt lat="42.98649" lon="2.93019">
        <ele>99.157</ele>
        <time>2021-02-28T10:15:50Z</time>
      </trkpt>
      <trkpt lat="42.98658" lon="2.92982">
        <ele>101.341</ele>
        <time>2021-02-28T10:16:10Z</time>
      </trkpt>
      <trkpt lat="42.98678" lon="2.92949">
        <ele>107.154</ele>
        <time>2021-02-28T10:16:33Z</time>
      </trkpt>
      <trkpt lat="42.98709" lon="2.92884">
        <ele>114.214</ele>
        <time>2021-02-28T10:17:18Z</time>
      </trkpt>
      <trkpt lat="42.98721" lon="2.92866">
        <ele>116.716</ele>
        <time>2021-02-28T10:17:32Z</time>
      </trkpt>
      <trkpt lat="42.98731" lon="2.92846">
        <ele>119.4</ele>
        <time>2021-02-28T10:17:45Z</time>
      </trkpt>
      <trkpt lat="42.98763" lon="2.92789">
        <ele>127.75</ele>
        <time>2021-02-28T10:18:26Z</time>
      </trkpt>
      <trkpt lat="42.98777" lon="2.9269">
        <ele>134.637</ele>
        <time>2021-02-28T10:19:23Z</time>
      </trkpt>
      <trkpt lat="42.98778" lon="2.92668">
        <ele>136.604</ele>
        <time>2021-02-28T10:19:37Z</time>
      </trkpt>
      <trkpt lat="42.98781" lon="2.92644">
        <ele>138.76</ele>
        <time>2021-02-28T10:19:51Z</time>
      </trkpt>
      <trkpt lat="42.98779" lon="2.92628">
        <ele>139.097</ele>
        <time>2021-02-28T10:20:00Z</time>
      </trkpt>
      <trkpt lat="42.9879" lon="2.92595">
        <ele>138.292</ele>
        <time>2021-02-28T10:21:15Z</time>
      </trkpt>
      <trkpt lat="42.98824" lon="2.9251">
        <ele>133.112</ele>
        <time>2021-02-28T10:21:28Z</time>
      </trkpt>
      <trkpt lat="42.98826" lon="2.92445">
        <ele>134.77</ele>
        <time>2021-02-28T10:21:44Z</time>
      </trkpt>
      <trkpt lat="42.98853" lon="2.92413">
        <ele>132.151</ele>
        <time>2021-02-28T10:21:50Z</time>
      </trkpt>
      <trkpt lat="42.98894" lon="2.92401">
        <ele>126.601</ele>
        <time>2021-02-28T10:21:58Z</time>
      </trkpt>
      <trkpt lat="42.9893" lon="2.92383">
        <ele>123.564</ele>
        <time>2021-02-28T10:22:06Z</time>
      </trkpt>
      <trkpt lat="42.98977" lon="2.92365">
        <ele>122.641</ele>
        <time>2021-02-28T10:22:15Z</time>
      </trkpt>
      <trkpt lat="42.99028" lon="2.92363">
        <ele>118.008</ele>
        <time>2021-02-28T10:22:24Z</time>
      </trkpt>
      <trkpt lat="42.9906" lon="2.92397">
        <ele>115.486</ele>
        <time>2021-02-28T10:22:32Z</time>
      </trkpt>
      <trkpt lat="42.99081" lon="2.92409">
        <ele>118.049</ele>
        <time>2021-02-28T10:22:43Z</time>
      </trkpt>
      <trkpt lat="42.99096" lon="2.92444">
        <ele>119.601</ele>
        <time>2021-02-28T10:22:55Z</time>
      </trkpt>
      <trkpt lat="42.9911" lon="2.92499">
        <ele>112.673</ele>
        <time>2021-02-28T10:23:09Z</time>
      </trkpt>
      <trkpt lat="42.99129" lon="2.92557">
        <ele>109.733</ele>
        <time>2021-02-28T10:23:21Z</time>
      </trkpt>
      <trkpt lat="42.99138" lon="2.92618">
        <ele>101.533</ele>
        <time>2021-02-28T10:23:37Z</time>
      </trkpt>
      <trkpt lat="42.99105" lon="2.92729">
        <ele>97.791</ele>
        <time>2021-02-28T10:24:01Z</time>
      </trkpt>
      <trkpt lat="42.991" lon="2.92737">
        <ele>97.906</ele>
        <time>2021-02-28T10:24:39Z</time>
      </trkpt>
      <trkpt lat="42.99084" lon="2.92793">
        <ele>93.972</ele>
        <time>2021-02-28T10:25:01Z</time>
      </trkpt>
      <trkpt lat="42.9905" lon="2.92829">
        <ele>94.364</ele>
        <time>2021-02-28T10:25:15Z</time>
      </trkpt>
      <trkpt lat="42.99041" lon="2.92891">
        <ele>86.043</ele>
        <time>2021-02-28T10:25:28Z</time>
      </trkpt>
      <trkpt lat="42.99014" lon="2.92894">
        <ele>89.285</ele>
        <time>2021-02-28T10:25:40Z</time>
      </trkpt>
      <trkpt lat="42.98996" lon="2.92901">
        <ele>92.383</ele>
        <time>2021-02-28T10:25:53Z</time>
      </trkpt>
      <trkpt lat="42.98992" lon="2.92914">
        <ele>92.618</ele>
        <time>2021-02-28T10:26:28Z</time>
      </trkpt>
      <trkpt lat="42.98999" lon="2.92976">
        <ele>85.054</ele>
        <time>2021-02-28T10:26:45Z</time>
      </trkpt>
      <trkpt lat="42.98986" lon="2.93047">
        <ele>78.723</ele>
        <time>2021-02-28T10:26:59Z</time>
      </trkpt>
      <trkpt lat="42.98955" lon="2.93074">
        <ele>80.649</ele>
        <time>2021-02-28T10:27:13Z</time>
      </trkpt>
      <trkpt lat="42.98923" lon="2.93162">
        <ele>77.254</ele>
        <time>2021-02-28T10:27:44Z</time>
      </trkpt>
      <trkpt lat="42.98921" lon="2.93157">
        <ele>78.428</ele>
        <time>2021-02-28T10:28:01Z</time>
      </trkpt>
      <trkpt lat="42.98916" lon="2.93155">
        <ele>80.805</ele>
        <time>2021-02-28T10:28:15Z</time>
      </trkpt>
      <trkpt lat="42.98905" lon="2.93191">
        <ele>84.666</ele>
        <time>2021-02-28T10:28:33Z</time>
      </trkpt>
      <trkpt lat="42.98902" lon="2.93216">
        <ele>85.216</ele>
        <time>2021-02-28T10:28:44Z</time>
      </trkpt>
      <trkpt lat="42.9889" lon="2.93273">
        <ele>86.586</ele>
        <time>2021-02-28T10:29:04Z</time>
      </trkpt>
      <trkpt lat="42.98873" lon="2.93332">
        <ele>85.194</ele>
        <time>2021-02-28T10:29:26Z</time>
      </trkpt>
      <trkpt lat="42.98809" lon="2.93401">
        <ele>84.661</ele>
        <time>2021-02-28T10:30:15Z</time>
      </trkpt>
      <trkpt lat="42.98788" lon="2.93396">
        <ele>87.738</ele>
        <time>2021-02-28T10:30:30Z</time>
      </trkpt>
      <trkpt lat="42.98761" lon="2.93394">
        <ele>91.675</ele>
        <time>2021-02-28T10:30:44Z</time>
      </trkpt>
      <trkpt lat="42.98706" lon="2.93413">
        <ele>93.247</ele>
        <time>2021-02-28T10:31:12Z</time>
      </trkpt>
      <trkpt lat="42.98654" lon="2.93387">
        <ele>90.65</ele>
        <time>2021-02-28T10:31:36Z</time>
      </trkpt>
      <trkpt lat="42.98648" lon="2.93433">
        <ele>86.264</ele>
        <time>2021-02-28T10:31:45Z</time>
      </trkpt>
      <trkpt lat="42.98634" lon="2.93432">
        <ele>84.103</ele>
        <time>2021-02-28T10:31:53Z</time>
      </trkpt>
      <trkpt lat="42.98512" lon="2.93396">
        <ele>91.68</ele>
        <time>2021-02-28T10:32:45Z</time>
      </trkpt>
      <trkpt lat="42.98493" lon="2.93379">
        <ele>92.961</ele>
        <time>2021-02-28T10:38:54Z</time>
      </trkpt>
      <trkpt lat="42.98478" lon="2.9336">
        <ele>94.433</ele>
        <time>2021-02-28T10:39:09Z</time>
      </trkpt>
      <trkpt lat="42.98436" lon="2.93357">
        <ele>98.514</ele>
        <time>2021-02-28T10:39:34Z</time>
      </trkpt>
      <trkpt lat="42.98403" lon="2.93338">
        <ele>98.227</ele>
        <time>2021-02-28T10:39:55Z</time>
      </trkpt>
      <trkpt lat="42.98404" lon="2.93328">
        <ele>99.065</ele>
        <time>2021-02-28T10:41:00Z</time>
      </trkpt>
      <trkpt lat="42.98383" lon="2.93305">
        <ele>98.996</ele>
        <time>2021-02-28T10:41:34Z</time>
      </trkpt>
      <trkpt lat="42.98378" lon="2.93302">
        <ele>100.045</ele>
        <time>2021-02-28T10:41:59Z</time>
      </trkpt>
      <trkpt lat="42.98357" lon="2.93314">
        <ele>101.593</ele>
        <time>2021-02-28T10:42:22Z</time>
      </trkpt>
      <trkpt lat="42.9836" lon="2.93344">
        <ele>98.261</ele>
        <time>2021-02-28T10:42:57Z</time>
      </trkpt>
      <trkpt lat="42.98326" lon="2.93468">
        <ele>90.841</ele>
        <time>2021-02-28T10:43:33Z</time>
      </trkpt>
      <trkpt lat="42.98302" lon="2.93526">
        <ele>88.757</ele>
        <time>2021-02-28T10:43:47Z</time>
      </trkpt>
      <trkpt lat="42.98248" lon="2.93553">
        <ele>84.083</ele>
        <time>2021-02-28T10:43:57Z</time>
      </trkpt>
      <trkpt lat="42.98219" lon="2.93558">
        <ele>84.752</ele>
        <time>2021-02-28T10:44:05Z</time>
      </trkpt>
      <trkpt lat="42.98175" lon="2.93555">
        <ele>87.25</ele>
        <time>2021-02-28T10:44:29Z</time>
      </trkpt>
      <trkpt lat="42.98136" lon="2.93498">
        <ele>88.443</ele>
        <time>2021-02-28T10:44:53Z</time>
      </trkpt>
      <trkpt lat="42.98104" lon="2.93387">
        <ele>89.146</ele>
        <time>2021-02-28T10:45:18Z</time>
      </trkpt>
      <trkpt lat="42.98083" lon="2.93361">
        <ele>91.212</ele>
        <time>2021-02-28T10:45:34Z</time>
      </trkpt>
      <trkpt lat="42.98057" lon="2.93317">
        <ele>95.737</ele>
        <time>2021-02-28T10:46:00Z</time>
      </trkpt>
      <trkpt lat="42.98051" lon="2.93299">
        <ele>97.754</ele>
        <time>2021-02-28T10:46:11Z</time>
      </trkpt>
      <trkpt lat="42.98038" lon="2.93239">
        <ele>104.214</ele>
        <time>2021-02-28T10:46:54Z</time>
      </trkpt>
      <trkpt lat="42.98028" lon="2.93209">
        <ele>107.695</ele>
        <time>2021-02-28T10:47:16Z</time>
      </trkpt>
      <trkpt lat="42.98" lon="2.93139">
        <ele>117.252</ele>
        <time>2021-02-28T10:48:01Z</time>
      </trkpt>
      <trkpt lat="42.97984" lon="2.93105">
        <ele>122.357</ele>
        <time>2021-02-28T10:48:24Z</time>
      </trkpt>
      <trkpt lat="42.97965" lon="2.93056">
        <ele>128.606</ele>
        <time>2021-02-28T10:48:57Z</time>
      </trkpt>
      <trkpt lat="42.97946" lon="2.9303">
        <ele>134.493</ele>
        <time>2021-02-28T10:49:17Z</time>
      </trkpt>
      <trkpt lat="42.9792" lon="2.93022">
        <ele>139.779</ele>
        <time>2021-02-28T10:49:39Z</time>
      </trkpt>
      <trkpt lat="42.97878" lon="2.93019">
        <ele>147.785</ele>
        <time>2021-02-28T10:50:14Z</time>
      </trkpt>
      <trkpt lat="42.97862" lon="2.9302">
        <ele>150.498</ele>
        <time>2021-02-28T10:50:28Z</time>
      </trkpt>
      <trkpt lat="42.97862" lon="2.93034">
        <ele>151.415</ele>
        <time>2021-02-28T10:50:45Z</time>
      </trkpt>
      <trkpt lat="42.97859" lon="2.93044">
        <ele>152.393</ele>
        <time>2021-02-28T10:51:11Z</time>
      </trkpt>
      <trkpt lat="42.97882" lon="2.93083">
        <ele>148.565</ele>
        <time>2021-02-28T10:51:25Z</time>
      </trkpt>
      <trkpt lat="42.97853" lon="2.93142">
        <ele>146.635</ele>
        <time>2021-02-28T10:52:39Z</time>
      </trkpt>
      <trkpt lat="42.97832" lon="2.93161">
        <ele>144.043</ele>
        <time>2021-02-28T10:52:45Z</time>
      </trkpt>
      <trkpt lat="42.97793" lon="2.93197">
        <ele>138.093</ele>
        <time>2021-02-28T10:52:55Z</time>
      </trkpt>
      <trkpt lat="42.97776" lon="2.93229">
        <ele>135.805</ele>
        <time>2021-02-28T10:53:01Z</time>
      </trkpt>
      <trkpt lat="42.97768" lon="2.93323">
        <ele>131.692</ele>
        <time>2021-02-28T10:53:12Z</time>
      </trkpt>
      <trkpt lat="42.97787" lon="2.93348">
        <ele>129.892</ele>
        <time>2021-02-28T10:53:18Z</time>
      </trkpt>
      <trkpt lat="42.97798" lon="2.93376">
        <ele>128.04</ele>
        <time>2021-02-28T10:53:25Z</time>
      </trkpt>
      <trkpt lat="42.97849" lon="2.93381">
        <ele>126.292</ele>
        <time>2021-02-28T10:53:37Z</time>
      </trkpt>
      <trkpt lat="42.97908" lon="2.93446">
        <ele>121.535</ele>
        <time>2021-02-28T10:53:54Z</time>
      </trkpt>
      <trkpt lat="42.97928" lon="2.93491">
        <ele>120.176</ele>
        <time>2021-02-28T10:54:01Z</time>
      </trkpt>
      <trkpt lat="42.97927" lon="2.93502">
        <ele>120.075</ele>
        <time>2021-02-28T10:54:54Z</time>
      </trkpt>
      <trkpt lat="42.97913" lon="2.93449">
        <ele>120.901</ele>
        <time>2021-02-28T10:57:13Z</time>
      </trkpt>
      <trkpt lat="42.97898" lon="2.9343">
        <ele>122.651</ele>
        <time>2021-02-28T10:57:24Z</time>
      </trkpt>
      <trkpt lat="42.97911" lon="2.93448">
        <ele>121.168</ele>
        <time>2021-02-28T10:57:54Z</time>
      </trkpt>
      <trkpt lat="42.97928" lon="2.93501">
        <ele>120.018</ele>
        <time>2021-02-28T10:58:09Z</time>
      </trkpt>
      <trkpt lat="42.97918" lon="2.93542">
        <ele>120.072</ele>
        <time>2021-02-28T10:58:19Z</time>
      </trkpt>
      <trkpt lat="42.97881" lon="2.93607">
        <ele>117.591</ele>
        <time>2021-02-28T10:58:33Z</time>
      </trkpt>
      <trkpt lat="42.97865" lon="2.93656">
        <ele>108.889</ele>
        <time>2021-02-28T10:58:44Z</time>
      </trkpt>
      <trkpt lat="42.9781" lon="2.93649">
        <ele>106.072</ele>
        <time>2021-02-28T10:59:03Z</time>
      </trkpt>
      <trkpt lat="42.97804" lon="2.9364">
        <ele>106.909</ele>
        <time>2021-02-28T10:59:14Z</time>
      </trkpt>
      <trkpt lat="42.97779" lon="2.93625">
        <ele>106.12</ele>
        <time>2021-02-28T10:59:36Z</time>
      </trkpt>
      <trkpt lat="42.97754" lon="2.9366">
        <ele>103.692</ele>
        <time>2021-02-28T10:59:53Z</time>
      </trkpt>
      <trkpt lat="42.97744" lon="2.93671">
        <ele>106.088</ele>
        <time>2021-02-28T11:00:11Z</time>
      </trkpt>
      <trkpt lat="42.97725" lon="2.93686">
        <ele>110.329</ele>
        <time>2021-02-28T11:00:23Z</time>
      </trkpt>
      <trkpt lat="42.97713" lon="2.93712">
        <ele>111.398</ele>
        <time>2021-02-28T11:00:44Z</time>
      </trkpt>
      <trkpt lat="42.97708" lon="2.93743">
        <ele>112.504</ele>
        <time>2021-02-28T11:00:58Z</time>
      </trkpt>
      <trkpt lat="42.97708" lon="2.93762">
        <ele>113.746</ele>
        <time>2021-02-28T11:01:06Z</time>
      </trkpt>
      <trkpt lat="42.977" lon="2.93786">
        <ele>116.837</ele>
        <time>2021-02-28T11:01:19Z</time>
      </trkpt>
      <trkpt lat="42.97701" lon="2.93812">
        <ele>115.948</ele>
        <time>2021-02-28T11:01:35Z</time>
      </trkpt>
      <trkpt lat="42.97712" lon="2.93898">
        <ele>108.98</ele>
        <time>2021-02-28T11:01:54Z</time>
      </trkpt>
      <trkpt lat="42.97722" lon="2.93939">
        <ele>104.144</ele>
        <time>2021-02-28T11:02:01Z</time>
      </trkpt>
      <trkpt lat="42.977" lon="2.93961">
        <ele>105.007</ele>
        <time>2021-02-28T11:02:12Z</time>
      </trkpt>
      <trkpt lat="42.97682" lon="2.94001">
        <ele>101.896</ele>
        <time>2021-02-28T11:02:23Z</time>
      </trkpt>
      <trkpt lat="42.97641" lon="2.94018">
        <ele>102.346</ele>
        <time>2021-02-28T11:02:45Z</time>
      </trkpt>
      <trkpt lat="42.97617" lon="2.94076">
        <ele>102.75</ele>
        <time>2021-02-28T11:03:08Z</time>
      </trkpt>
      <trkpt lat="42.97595" lon="2.94091">
        <ele>104.705</ele>
        <time>2021-02-28T11:03:23Z</time>
      </trkpt>
      <trkpt lat="42.9757" lon="2.94099">
        <ele>106.537</ele>
        <time>2021-02-28T11:03:37Z</time>
      </trkpt>
      <trkpt lat="42.97499" lon="2.9411">
        <ele>109.44</ele>
        <time>2021-02-28T11:04:14Z</time>
      </trkpt>
      <trkpt lat="42.9748" lon="2.94126">
        <ele>111.197</ele>
        <time>2021-02-28T11:04:28Z</time>
      </trkpt>
      <trkpt lat="42.97488" lon="2.94147">
        <ele>110.894</ele>
        <time>2021-02-28T11:04:38Z</time>
      </trkpt>
      <trkpt lat="42.97514" lon="2.94199">
        <ele>112.056</ele>
        <time>2021-02-28T11:04:55Z</time>
      </trkpt>
      <trkpt lat="42.97537" lon="2.94263">
        <ele>109.85</ele>
        <time>2021-02-28T11:05:06Z</time>
      </trkpt>
      <trkpt lat="42.9758" lon="2.94327">
        <ele>105.533</ele>
        <time>2021-02-28T11:05:19Z</time>
      </trkpt>
      <trkpt lat="42.97588" lon="2.94392">
        <ele>99.662</ele>
        <time>2021-02-28T11:05:27Z</time>
      </trkpt>
      <trkpt lat="42.9762" lon="2.94421">
        <ele>98.295</ele>
        <time>2021-02-28T11:05:34Z</time>
      </trkpt>
      <trkpt lat="42.97722" lon="2.94453">
        <ele>93.441</ele>
        <time>2021-02-28T11:05:52Z</time>
      </trkpt>
      <trkpt lat="42.97727" lon="2.94513">
        <ele>96.881</ele>
        <time>2021-02-28T11:06:11Z</time>
      </trkpt>
      <trkpt lat="42.97735" lon="2.94566">
        <ele>100.702</ele>
        <time>2021-02-28T11:06:31Z</time>
      </trkpt>
      <trkpt lat="42.97754" lon="2.9459">
        <ele>103.247</ele>
        <time>2021-02-28T11:06:48Z</time>
      </trkpt>
      <trkpt lat="42.97773" lon="2.94585">
        <ele>106.343</ele>
        <time>2021-02-28T11:07:03Z</time>
      </trkpt>
      <trkpt lat="42.97796" lon="2.94586">
        <ele>110.525</ele>
        <time>2021-02-28T11:07:21Z</time>
      </trkpt>
      <trkpt lat="42.97832" lon="2.94591">
        <ele>112.899</ele>
        <time>2021-02-28T11:07:45Z</time>
      </trkpt>
      <trkpt lat="42.97893" lon="2.94605">
        <ele>110.227</ele>
        <time>2021-02-28T11:08:10Z</time>
      </trkpt>
      <trkpt lat="42.97939" lon="2.94595">
        <ele>108.919</ele>
        <time>2021-02-28T11:08:23Z</time>
      </trkpt>
      <trkpt lat="42.98007" lon="2.94595">
        <ele>110.061</ele>
        <time>2021-02-28T11:08:46Z</time>
      </trkpt>
      <trkpt lat="42.98026" lon="2.94591">
        <ele>109.671</ele>
        <time>2021-02-28T11:08:59Z</time>
      </trkpt>
      <trkpt lat="42.98053" lon="2.9453">
        <ele>107.856</ele>
        <time>2021-02-28T11:12:06Z</time>
      </trkpt>
      <trkpt lat="42.98094" lon="2.94524">
        <ele>102.534</ele>
        <time>2021-02-28T11:12:13Z</time>
      </trkpt>
      <trkpt lat="42.98132" lon="2.94547">
        <ele>97.744</ele>
        <time>2021-02-28T11:12:21Z</time>
      </trkpt>
      <trkpt lat="42.98139" lon="2.94573">
        <ele>98.332</ele>
        <time>2021-02-28T11:12:28Z</time>
      </trkpt>
      <trkpt lat="42.98144" lon="2.946">
        <ele>100.488</ele>
        <time>2021-02-28T11:12:41Z</time>
      </trkpt>
      <trkpt lat="42.98144" lon="2.94605">
        <ele>101.126</ele>
        <time>2021-02-28T11:12:47Z</time>
      </trkpt>
      <trkpt lat="42.98137" lon="2.94626">
        <ele>104.038</ele>
        <time>2021-02-28T11:13:06Z</time>
      </trkpt>
      <trkpt lat="42.98143" lon="2.94639">
        <ele>105.561</ele>
        <time>2021-02-28T11:13:19Z</time>
      </trkpt>
      <trkpt lat="42.98161" lon="2.94644">
        <ele>106.206</ele>
        <time>2021-02-28T11:13:33Z</time>
      </trkpt>
      <trkpt lat="42.98195" lon="2.94642">
        <ele>107.866</ele>
        <time>2021-02-28T11:13:51Z</time>
      </trkpt>
      <trkpt lat="42.98233" lon="2.94604">
        <ele>105.571</ele>
        <time>2021-02-28T11:14:16Z</time>
      </trkpt>
      <trkpt lat="42.98252" lon="2.94602">
        <ele>104.872</ele>
        <time>2021-02-28T11:14:32Z</time>
      </trkpt>
      <trkpt lat="42.98251" lon="2.94642">
        <ele>104.588</ele>
        <time>2021-02-28T11:14:45Z</time>
      </trkpt>
      <trkpt lat="42.98286" lon="2.94684">
        <ele>103.93</ele>
        <time>2021-02-28T11:14:54Z</time>
      </trkpt>
      <trkpt lat="42.98315" lon="2.94716">
        <ele>104.757</ele>
        <time>2021-02-28T11:15:18Z</time>
      </trkpt>
      <trkpt lat="42.98335" lon="2.94698">
        <ele>102.643</ele>
        <time>2021-02-28T11:15:32Z</time>
      </trkpt>
      <trkpt lat="42.98368" lon="2.94732">
        <ele>92.925</ele>
        <time>2021-02-28T11:15:44Z</time>
      </trkpt>
      <trkpt lat="42.98382" lon="2.94789">
        <ele>87.333</ele>
        <time>2021-02-28T11:15:52Z</time>
      </trkpt>
      <trkpt lat="42.98419" lon="2.9482">
        <ele>80.705</ele>
        <time>2021-02-28T11:16:00Z</time>
      </trkpt>
      <trkpt lat="42.98488" lon="2.94823">
        <ele>75.31</ele>
        <time>2021-02-28T11:16:07Z</time>
      </trkpt>
      <trkpt lat="42.98547" lon="2.94844">
        <ele>76.66</ele>
        <time>2021-02-28T11:16:15Z</time>
      </trkpt>
      <trkpt lat="42.98646" lon="2.94852">
        <ele>82.152</ele>
        <time>2021-02-28T11:16:43Z</time>
      </trkpt>
      <trkpt lat="42.98679" lon="2.94871">
        <ele>85.812</ele>
        <time>2021-02-28T11:17:00Z</time>
      </trkpt>
      <trkpt lat="42.98695" lon="2.94886">
        <ele>87.249</ele>
        <time>2021-02-28T11:17:12Z</time>
      </trkpt>
      <trkpt lat="42.98683" lon="2.94897">
        <ele>87.78</ele>
        <time>2021-02-28T11:17:23Z</time>
      </trkpt>
      <trkpt lat="42.98662" lon="2.94905">
        <ele>89.009</ele>
        <time>2021-02-28T11:17:38Z</time>
      </trkpt>
      <trkpt lat="42.98638" lon="2.94929">
        <ele>92.131</ele>
        <time>2021-02-28T11:17:59Z</time>
      </trkpt>
      <trkpt lat="42.98654" lon="2.94943">
        <ele>95.868</ele>
        <time>2021-02-28T11:18:14Z</time>
      </trkpt>
      <trkpt lat="42.98714" lon="2.94967">
        <ele>99.261</ele>
        <time>2021-02-28T11:18:52Z</time>
      </trkpt>
      <trkpt lat="42.98689" lon="2.95015">
        <ele>102.732</ele>
        <time>2021-02-28T11:19:16Z</time>
      </trkpt>
      <trkpt lat="42.98705" lon="2.95168">
        <ele>101.921</ele>
        <time>2021-02-28T11:19:49Z</time>
      </trkpt>
      <trkpt lat="42.98698" lon="2.95201">
        <ele>104.021</ele>
        <time>2021-02-28T11:19:58Z</time>
      </trkpt>
      <trkpt lat="42.98723" lon="2.95282">
        <ele>105.664</ele>
        <time>2021-02-28T11:20:23Z</time>
      </trkpt>
      <trkpt lat="42.98732" lon="2.9534">
        <ele>109.518</ele>
        <time>2021-02-28T11:20:45Z</time>
      </trkpt>
      <trkpt lat="42.98748" lon="2.95316">
        <ele>104.309</ele>
        <time>2021-02-28T11:20:58Z</time>
      </trkpt>
      <trkpt lat="42.98738" lon="2.95329">
        <ele>109.015</ele>
        <time>2021-02-28T11:22:50Z</time>
      </trkpt>
      <trkpt lat="42.98739" lon="2.9541">
        <ele>111.761</ele>
        <time>2021-02-28T11:23:15Z</time>
      </trkpt>
      <trkpt lat="42.98794" lon="2.95564">
        <ele>107.234</ele>
        <time>2021-02-28T11:23:55Z</time>
      </trkpt>
      <trkpt lat="42.98854" lon="2.95724">
        <ele>111.912</ele>
        <time>2021-02-28T11:24:29Z</time>
      </trkpt>
      <trkpt lat="42.98864" lon="2.95867">
        <ele>111.113</ele>
        <time>2021-02-28T11:24:57Z</time>
      </trkpt>
      <trkpt lat="42.9883" lon="2.95969">
        <ele>107.35</ele>
        <time>2021-02-28T11:25:15Z</time>
      </trkpt>
      <trkpt lat="42.98806" lon="2.96102">
        <ele>104.238</ele>
        <time>2021-02-28T11:25:37Z</time>
      </trkpt>
      <trkpt lat="42.98781" lon="2.96117">
        <ele>104.007</ele>
        <time>2021-02-28T11:25:43Z</time>
      </trkpt>
      <trkpt lat="42.98719" lon="2.96125">
        <ele>102.364</ele>
        <time>2021-02-28T11:25:57Z</time>
      </trkpt>
      <trkpt lat="42.98694" lon="2.96139">
        <ele>101.007</ele>
        <time>2021-02-28T11:26:04Z</time>
      </trkpt>
      <trkpt lat="42.9862" lon="2.9615">
        <ele>98.374</ele>
        <time>2021-02-28T11:26:26Z</time>
      </trkpt>
      <trkpt lat="42.98588" lon="2.96205">
        <ele>95.07</ele>
        <time>2021-02-28T11:26:38Z</time>
      </trkpt>
      <trkpt lat="42.98565" lon="2.96195">
        <ele>89.449</ele>
        <time>2021-02-28T11:26:45Z</time>
      </trkpt>
      <trkpt lat="42.98547" lon="2.9617">
        <ele>84.825</ele>
        <time>2021-02-28T11:26:51Z</time>
      </trkpt>
      <trkpt lat="42.98534" lon="2.96092">
        <ele>78.199</ele>
        <time>2021-02-28T11:26:59Z</time>
      </trkpt>
      <trkpt lat="42.9853" lon="2.96061">
        <ele>75.51</ele>
        <time>2021-02-28T11:27:05Z</time>
      </trkpt>
      <trkpt lat="42.98516" lon="2.96102">
        <ele>72.845</ele>
        <time>2021-02-28T11:27:14Z</time>
      </trkpt>
      <trkpt lat="42.98501" lon="2.9611">
        <ele>68.802</ele>
        <time>2021-02-28T11:27:23Z</time>
      </trkpt>
      <trkpt lat="42.98459" lon="2.96088">
        <ele>60.755</ele>
        <time>2021-02-28T11:27:30Z</time>
      </trkpt>
      <trkpt lat="42.98444" lon="2.96083">
        <ele>63.472</ele>
        <time>2021-02-28T11:27:38Z</time>
      </trkpt>
      <trkpt lat="42.9844" lon="2.96026">
        <ele>66.413</ele>
        <time>2021-02-28T11:28:02Z</time>
      </trkpt>
      <trkpt lat="42.98436" lon="2.96032">
        <ele>67.085</ele>
        <time>2021-02-28T11:28:20Z</time>
      </trkpt>
      <trkpt lat="42.98427" lon="2.96123">
        <ele>65.695</ele>
        <time>2021-02-28T11:28:46Z</time>
      </trkpt>
      <trkpt lat="42.98426" lon="2.96173">
        <ele>65.142</ele>
        <time>2021-02-28T11:29:01Z</time>
      </trkpt>
      <trkpt lat="42.98429" lon="2.96228">
        <ele>66.005</ele>
        <time>2021-02-28T11:58:39Z</time>
      </trkpt>
      <trkpt lat="42.98441" lon="2.96281">
        <ele>65.477</ele>
        <time>2021-02-28T11:58:54Z</time>
      </trkpt>
      <trkpt lat="42.98461" lon="2.96357">
        <ele>58.579</ele>
        <time>2021-02-28T11:59:08Z</time>
      </trkpt>
      <trkpt lat="42.98459" lon="2.96404">
        <ele>63.817</ele>
        <time>2021-02-28T11:59:17Z</time>
      </trkpt>
      <trkpt lat="42.98406" lon="2.96469">
        <ele>62.302</ele>
        <time>2021-02-28T11:59:36Z</time>
      </trkpt>
      <trkpt lat="42.98358" lon="2.96543">
        <ele>64.451</ele>
        <time>2021-02-28T11:59:54Z</time>
      </trkpt>
      <trkpt lat="42.98371" lon="2.9666">
        <ele>57.077</ele>
        <time>2021-02-28T12:00:18Z</time>
      </trkpt>
      <trkpt lat="42.98384" lon="2.96722">
        <ele>50.943</ele>
        <time>2021-02-28T12:00:28Z</time>
      </trkpt>
      <trkpt lat="42.9837" lon="2.9677">
        <ele>49.012</ele>
        <time>2021-02-28T12:00:38Z</time>
      </trkpt>
      <trkpt lat="42.98384" lon="2.96788">
        <ele>50.74</ele>
        <time>2021-02-28T12:00:50Z</time>
      </trkpt>
      <trkpt lat="42.98411" lon="2.96884">
        <ele>53.521</ele>
        <time>2021-02-28T12:01:17Z</time>
      </trkpt>
      <trkpt lat="42.98395" lon="2.96915">
        <ele>54.227</ele>
        <time>2021-02-28T12:01:25Z</time>
      </trkpt>
      <trkpt lat="42.98383" lon="2.96974">
        <ele>49.854</ele>
        <time>2021-02-28T12:01:38Z</time>
      </trkpt>
      <trkpt lat="42.98381" lon="2.97009">
        <ele>50.957</ele>
        <time>2021-02-28T12:01:46Z</time>
      </trkpt>
      <trkpt lat="42.98336" lon="2.97091">
        <ele>50.07</ele>
        <time>2021-02-28T12:02:02Z</time>
      </trkpt>
      <trkpt lat="42.98287" lon="2.9721">
        <ele>45.609</ele>
        <time>2021-02-28T12:02:28Z</time>
      </trkpt>
      <trkpt lat="42.98239" lon="2.9728">
        <ele>43.498</ele>
        <time>2021-02-28T12:02:45Z</time>
      </trkpt>
      <trkpt lat="42.98186" lon="2.97371">
        <ele>41.719</ele>
        <time>2021-02-28T12:03:07Z</time>
      </trkpt>
      <trkpt lat="42.98142" lon="2.97403">
        <ele>38.114</ele>
        <time>2021-02-28T12:03:18Z</time>
      </trkpt>
      <trkpt lat="42.9807" lon="2.97409">
        <ele>34.708</ele>
        <time>2021-02-28T12:03:34Z</time>
      </trkpt>
      <trkpt lat="42.97964" lon="2.97421">
        <ele>32.758</ele>
        <time>2021-02-28T12:04:05Z</time>
      </trkpt>
      <trkpt lat="42.97914" lon="2.97551">
        <ele>32.782</ele>
        <time>2021-02-28T12:04:33Z</time>
      </trkpt>
      <trkpt lat="42.97854" lon="2.97628">
        <ele>29.701</ele>
        <time>2021-02-28T12:04:52Z</time>
      </trkpt>
      <trkpt lat="42.97832" lon="2.9776">
        <ele>28.305</ele>
        <time>2021-02-28T12:05:11Z</time>
      </trkpt>
      <trkpt lat="42.97782" lon="2.97865">
        <ele>25.416</ele>
        <time>2021-02-28T12:05:30Z</time>
      </trkpt>
      <trkpt lat="42.9777" lon="2.97913">
        <ele>24.589</ele>
        <time>2021-02-28T12:05:42Z</time>
      </trkpt>
      <trkpt lat="42.97759" lon="2.97974">
        <ele>23.826</ele>
        <time>2021-02-28T12:05:53Z</time>
      </trkpt>
      <trkpt lat="42.97753" lon="2.98">
        <ele>23.525</ele>
        <time>2021-02-28T12:06:04Z</time>
      </trkpt>
      <trkpt lat="42.97728" lon="2.98122">
        <ele>22.892</ele>
        <time>2021-02-28T12:06:27Z</time>
      </trkpt>
      <trkpt lat="42.97703" lon="2.98219">
        <ele>22.619</ele>
        <time>2021-02-28T12:06:48Z</time>
      </trkpt>
      <trkpt lat="42.97657" lon="2.98365">
        <ele>31.173</ele>
        <time>2021-02-28T12:07:34Z</time>
      </trkpt>
      <trkpt lat="42.97649" lon="2.98399">
        <ele>34.359</ele>
        <time>2021-02-28T12:07:49Z</time>
      </trkpt>
      <trkpt lat="42.97637" lon="2.98433">
        <ele>38.222</ele>
        <time>2021-02-28T12:08:09Z</time>
      </trkpt>
      <trkpt lat="42.97628" lon="2.98467">
        <ele>41.42</ele>
        <time>2021-02-28T12:08:27Z</time>
      </trkpt>
      <trkpt lat="42.97623" lon="2.9851">
        <ele>43.999</ele>
        <time>2021-02-28T12:08:47Z</time>
      </trkpt>
      <trkpt lat="42.97631" lon="2.98559">
        <ele>45.419</ele>
        <time>2021-02-28T12:09:07Z</time>
      </trkpt>
      <trkpt lat="42.97637" lon="2.98655">
        <ele>46.032</ele>
        <time>2021-02-28T12:09:35Z</time>
      </trkpt>
      <trkpt lat="42.97621" lon="2.98811">
        <ele>43.591</ele>
        <time>2021-02-28T12:10:13Z</time>
      </trkpt>
      <trkpt lat="42.97605" lon="2.98939">
        <ele>34.745</ele>
        <time>2021-02-28T12:10:36Z</time>
      </trkpt>
      <trkpt lat="42.97585" lon="2.98989">
        <ele>26.341</ele>
        <time>2021-02-28T12:10:44Z</time>
      </trkpt>
      <trkpt lat="42.9758" lon="2.99035">
        <ele>21.303</ele>
        <time>2021-02-28T12:10:54Z</time>
      </trkpt>
      <trkpt lat="42.97592" lon="2.99072">
        <ele>19.423</ele>
        <time>2021-02-28T12:11:06Z</time>
      </trkpt>
      <trkpt lat="42.9758" lon="2.99127">
        <ele>15.966</ele>
        <time>2021-02-28T12:11:17Z</time>
      </trkpt>
      <trkpt lat="42.97575" lon="2.99175">
        <ele>13.928</ele>
        <time>2021-02-28T12:11:24Z</time>
      </trkpt>
      <trkpt lat="42.97562" lon="2.99239">
        <ele>13</ele>
        <time>2021-02-28T12:11:33Z</time>
      </trkpt>
      <trkpt lat="42.9756" lon="2.99304">
        <ele>12.872</ele>
        <time>2021-02-28T12:11:45Z</time>
      </trkpt>
      <trkpt lat="42.97572" lon="2.99398">
        <ele>11.552</ele>
        <time>2021-02-28T12:12:03Z</time>
      </trkpt>
      <trkpt lat="42.976" lon="2.99479">
        <ele>9.535</ele>
        <time>2021-02-28T12:12:21Z</time>
      </trkpt>
      <trkpt lat="42.97633" lon="2.9954">
        <ele>9.837</ele>
        <time>2021-02-28T12:12:40Z</time>
      </trkpt>
      <trkpt lat="42.97667" lon="2.99675">
        <ele>9.51</ele>
        <time>2021-02-28T12:13:10Z</time>
      </trkpt>
      <trkpt lat="42.9764" lon="2.99801">
        <ele>5.466</ele>
        <time>2021-02-28T12:13:37Z</time>
      </trkpt>
      <trkpt lat="42.97644" lon="2.99914">
        <ele>7.138</ele>
        <time>2021-02-28T12:14:06Z</time>
      </trkpt>
      <trkpt lat="42.97672" lon="2.99946">
        <ele>12.734</ele>
        <time>2021-02-28T12:14:25Z</time>
      </trkpt>
      <trkpt lat="42.97692" lon="3.00021">
        <ele>17.729</ele>
        <time>2021-02-28T12:14:55Z</time>
      </trkpt>
      <trkpt lat="42.97706" lon="3.00068">
        <ele>21.765</ele>
        <time>2021-02-28T12:15:15Z</time>
      </trkpt>
      <trkpt lat="42.97723" lon="3.00163">
        <ele>27.338</ele>
        <time>2021-02-28T12:15:55Z</time>
      </trkpt>
      <trkpt lat="42.97726" lon="3.00202">
        <ele>28.075</ele>
        <time>2021-02-28T12:16:08Z</time>
      </trkpt>
      <trkpt lat="42.97741" lon="3.00259">
        <ele>31.298</ele>
        <time>2021-02-28T12:16:33Z</time>
      </trkpt>
      <trkpt lat="42.97754" lon="3.00292">
        <ele>33.65</ele>
        <time>2021-02-28T12:16:48Z</time>
      </trkpt>
      <trkpt lat="42.97777" lon="3.00336">
        <ele>35.297</ele>
        <time>2021-02-28T12:17:10Z</time>
      </trkpt>
      <trkpt lat="42.97789" lon="3.00358">
        <ele>34.733</ele>
        <time>2021-02-28T12:18:41Z</time>
      </trkpt>
      <trkpt lat="42.9783" lon="3.00422">
        <ele>35.316</ele>
        <time>2021-02-28T12:19:08Z</time>
      </trkpt>
      <trkpt lat="42.97904" lon="3.00492">
        <ele>40.644</ele>
        <time>2021-02-28T12:19:43Z</time>
      </trkpt>
      <trkpt lat="42.97931" lon="3.00533">
        <ele>41.93</ele>
        <time>2021-02-28T12:20:03Z</time>
      </trkpt>
      <trkpt lat="42.97953" lon="3.0056">
        <ele>42.9</ele>
        <time>2021-02-28T12:20:21Z</time>
      </trkpt>
      <trkpt lat="42.97978" lon="3.00585">
        <ele>44.225</ele>
        <time>2021-02-28T12:20:40Z</time>
      </trkpt>
      <trkpt lat="42.98026" lon="3.00598">
        <ele>47.93</ele>
        <time>2021-02-28T12:21:06Z</time>
      </trkpt>
      <trkpt lat="42.98064" lon="3.00601">
        <ele>49.635</ele>
        <time>2021-02-28T12:21:26Z</time>
      </trkpt>
      <trkpt lat="42.9812" lon="3.0058">
        <ele>51.256</ele>
        <time>2021-02-28T12:21:53Z</time>
      </trkpt>
      <trkpt lat="42.98131" lon="3.0059">
        <ele>51.326</ele>
        <time>2021-02-28T12:22:06Z</time>
      </trkpt>
      <trkpt lat="42.98078" lon="3.00703">
        <ele>44.309</ele>
        <time>2021-02-28T12:22:32Z</time>
      </trkpt>
      <trkpt lat="42.98051" lon="3.00743">
        <ele>37.445</ele>
        <time>2021-02-28T12:22:40Z</time>
      </trkpt>
      <trkpt lat="42.98021" lon="3.00792">
        <ele>30.475</ele>
        <time>2021-02-28T12:22:49Z</time>
      </trkpt>
      <trkpt lat="42.98005" lon="3.00821">
        <ele>26.782</ele>
        <time>2021-02-28T12:22:56Z</time>
      </trkpt>
      <trkpt lat="42.97946" lon="3.00866">
        <ele>14.044</ele>
        <time>2021-02-28T12:23:11Z</time>
      </trkpt>
      <trkpt lat="42.97937" lon="3.00859">
        <ele>13.441</ele>
        <time>2021-02-28T12:23:17Z</time>
      </trkpt>
      <trkpt lat="42.97945" lon="3.00866">
        <ele>13.921</ele>
        <time>2021-02-28T12:23:36Z</time>
      </trkpt>
      <trkpt lat="42.97975" lon="3.009">
        <ele>15.278</ele>
        <time>2021-02-28T12:23:55Z</time>
      </trkpt>
      <trkpt lat="42.97992" lon="3.00905">
        <ele>17.513</ele>
        <time>2021-02-28T12:24:11Z</time>
      </trkpt>
      <trkpt lat="42.97994" lon="3.00923">
        <ele>18.806</ele>
        <time>2021-02-28T12:24:53Z</time>
      </trkpt>
      <trkpt lat="42.98" lon="3.00939">
        <ele>21.406</ele>
        <time>2021-02-28T12:25:08Z</time>
      </trkpt>
      <trkpt lat="42.98007" lon="3.00963">
        <ele>24.635</ele>
        <time>2021-02-28T12:25:37Z</time>
      </trkpt>
      <trkpt lat="42.9802" lon="3.00989">
        <ele>28.857</ele>
        <time>2021-02-28T12:26:13Z</time>
      </trkpt>
      <trkpt lat="42.98028" lon="3.01013">
        <ele>31.489</ele>
        <time>2021-02-28T12:26:55Z</time>
      </trkpt>
      <trkpt lat="42.98042" lon="3.01075">
        <ele>32.904</ele>
        <time>2021-02-28T12:27:19Z</time>
      </trkpt>
      <trkpt lat="42.98048" lon="3.01136">
        <ele>33.053</ele>
        <time>2021-02-28T12:27:38Z</time>
      </trkpt>
      <trkpt lat="42.98099" lon="3.01129">
        <ele>31.532</ele>
        <time>2021-02-28T12:28:01Z</time>
      </trkpt>
      <trkpt lat="42.98162" lon="3.0104">
        <ele>36.103</ele>
        <time>2021-02-28T12:28:30Z</time>
      </trkpt>
      <trkpt lat="42.9818" lon="3.01057">
        <ele>36.337</ele>
        <time>2021-02-28T12:28:41Z</time>
      </trkpt>
      <trkpt lat="42.98159" lon="3.01122">
        <ele>31.058</ele>
        <time>2021-02-28T12:28:53Z</time>
      </trkpt>
      <trkpt lat="42.98155" lon="3.01168">
        <ele>26.389</ele>
        <time>2021-02-28T12:29:05Z</time>
      </trkpt>
      <trkpt lat="42.98143" lon="3.0121">
        <ele>23.28</ele>
        <time>2021-02-28T12:29:16Z</time>
      </trkpt>
      <trkpt lat="42.98153" lon="3.01215">
        <ele>25.211</ele>
        <time>2021-02-28T12:29:38Z</time>
      </trkpt>
      <trkpt lat="42.9816" lon="3.01227">
        <ele>27.916</ele>
        <time>2021-02-28T12:29:57Z</time>
      </trkpt>
      <trkpt lat="42.98167" lon="3.01242">
        <ele>31.358</ele>
        <time>2021-02-28T12:30:15Z</time>
      </trkpt>
      <trkpt lat="42.98173" lon="3.01266">
        <ele>35.036</ele>
        <time>2021-02-28T12:30:36Z</time>
      </trkpt>
      <trkpt lat="42.98174" lon="3.01288">
        <ele>36.377</ele>
        <time>2021-02-28T12:30:55Z</time>
      </trkpt>
      <trkpt lat="42.98174" lon="3.01305">
        <ele>37.294</ele>
        <time>2021-02-28T12:31:09Z</time>
      </trkpt>
      <trkpt lat="42.98177" lon="3.01324">
        <ele>37.926</ele>
        <time>2021-02-28T12:31:25Z</time>
      </trkpt>
      <trkpt lat="42.98199" lon="3.01347">
        <ele>38.723</ele>
        <time>2021-02-28T12:32:47Z</time>
      </trkpt>
      <trkpt lat="42.98235" lon="3.01369">
        <ele>40.762</ele>
        <time>2021-02-28T12:33:13Z</time>
      </trkpt>
      <trkpt lat="42.98247" lon="3.01323">
        <ele>45.89</ele>
        <time>2021-02-28T12:33:37Z</time>
      </trkpt>
      <trkpt lat="42.9825" lon="3.01284">
        <ele>46.622</ele>
        <time>2021-02-28T12:33:56Z</time>
      </trkpt>
      <trkpt lat="42.98283" lon="3.01265">
        <ele>50.324</ele>
        <time>2021-02-28T12:34:18Z</time>
      </trkpt>
      <trkpt lat="42.98314" lon="3.01245">
        <ele>53.023</ele>
        <time>2021-02-28T12:34:40Z</time>
      </trkpt>
      <trkpt lat="42.98335" lon="3.01236">
        <ele>56.043</ele>
        <time>2021-02-28T12:34:55Z</time>
      </trkpt>
      <trkpt lat="42.98369" lon="3.01211">
        <ele>60.081</ele>
        <time>2021-02-28T12:35:21Z</time>
      </trkpt>
      <trkpt lat="42.98418" lon="3.01184">
        <ele>64.678</ele>
        <time>2021-02-28T12:35:53Z</time>
      </trkpt>
      <trkpt lat="42.98447" lon="3.01176">
        <ele>67.524</ele>
        <time>2021-02-28T12:36:14Z</time>
      </trkpt>
      <trkpt lat="42.98474" lon="3.01141">
        <ele>68.193</ele>
        <time>2021-02-28T12:36:30Z</time>
      </trkpt>
      <trkpt lat="42.98485" lon="3.01085">
        <ele>70.64</ele>
        <time>2021-02-28T12:36:42Z</time>
      </trkpt>
      <trkpt lat="42.98495" lon="3.01088">
        <ele>71.944</ele>
        <time>2021-02-28T12:36:53Z</time>
      </trkpt>
      <trkpt lat="42.98531" lon="3.01107">
        <ele>75.349</ele>
        <time>2021-02-28T12:37:23Z</time>
      </trkpt>
      <trkpt lat="42.98545" lon="3.01093">
        <ele>77.064</ele>
        <time>2021-02-28T12:37:38Z</time>
      </trkpt>
      <trkpt lat="42.98555" lon="3.01058">
        <ele>79.289</ele>
        <time>2021-02-28T12:37:57Z</time>
      </trkpt>
      <trkpt lat="42.98572" lon="3.01011">
        <ele>82.353</ele>
        <time>2021-02-28T12:38:22Z</time>
      </trkpt>
      <trkpt lat="42.98589" lon="3.00951">
        <ele>84.052</ele>
        <time>2021-02-28T12:38:46Z</time>
      </trkpt>
      <trkpt lat="42.98713" lon="3.00952">
        <ele>82.678</ele>
        <time>2021-02-28T12:39:24Z</time>
      </trkpt>
      <trkpt lat="42.98773" lon="3.00967">
        <ele>81.165</ele>
        <time>2021-02-28T12:39:42Z</time>
      </trkpt>
      <trkpt lat="42.98754" lon="3.00901">
        <ele>80.035</ele>
        <time>2021-02-28T12:39:57Z</time>
      </trkpt>
      <trkpt lat="42.9873" lon="3.00779">
        <ele>75.05</ele>
        <time>2021-02-28T12:40:15Z</time>
      </trkpt>
      <trkpt lat="42.98733" lon="3.00708">
        <ele>75.969</ele>
        <time>2021-02-28T12:40:27Z</time>
      </trkpt>
      <trkpt lat="42.98719" lon="3.00616">
        <ele>73.694</ele>
        <time>2021-02-28T12:40:43Z</time>
      </trkpt>
      <trkpt lat="42.98686" lon="3.00535">
        <ele>66.95</ele>
        <time>2021-02-28T12:40:53Z</time>
      </trkpt>
      <trkpt lat="42.98632" lon="3.00509">
        <ele>64.299</ele>
        <time>2021-02-28T12:41:02Z</time>
      </trkpt>
      <trkpt lat="42.98602" lon="3.00464">
        <ele>61.147</ele>
        <time>2021-02-28T12:41:10Z</time>
      </trkpt>
      <trkpt lat="42.98586" lon="3.00459">
        <ele>61.137</ele>
        <time>2021-02-28T12:41:18Z</time>
      </trkpt>
      <trkpt lat="42.98603" lon="3.00407">
        <ele>57.738</ele>
        <time>2021-02-28T12:41:31Z</time>
      </trkpt>
      <trkpt lat="42.98625" lon="3.00374">
        <ele>55.752</ele>
        <time>2021-02-28T12:41:41Z</time>
      </trkpt>
      <trkpt lat="42.98687" lon="3.00356">
        <ele>55.489</ele>
        <time>2021-02-28T12:41:59Z</time>
      </trkpt>
      <trkpt lat="42.98679" lon="3.00252">
        <ele>53.885</ele>
        <time>2021-02-28T12:42:20Z</time>
      </trkpt>
      <trkpt lat="42.98704" lon="3.00218">
        <ele>56.19</ele>
        <time>2021-02-28T12:42:38Z</time>
      </trkpt>
      <trkpt lat="42.98704" lon="3.00216">
        <ele>56.146</ele>
        <time>2021-02-28T12:42:54Z</time>
      </trkpt>
      <trkpt lat="42.98688" lon="3.00164">
        <ele>52.22</ele>
        <time>2021-02-28T12:43:05Z</time>
      </trkpt>
      <trkpt lat="42.98696" lon="3.00088">
        <ele>50.886</ele>
        <time>2021-02-28T12:43:18Z</time>
      </trkpt>
      <trkpt lat="42.98668" lon="3.00011">
        <ele>47.245</ele>
        <time>2021-02-28T12:43:35Z</time>
      </trkpt>
      <trkpt lat="42.98648" lon="2.99933">
        <ele>44.496</ele>
        <time>2021-02-28T12:43:45Z</time>
      </trkpt>
      <trkpt lat="42.9863" lon="2.99884">
        <ele>42.765</ele>
        <time>2021-02-28T12:43:54Z</time>
      </trkpt>
      <trkpt lat="42.986" lon="2.99875">
        <ele>41.849</ele>
        <time>2021-02-28T12:44:03Z</time>
      </trkpt>
      <trkpt lat="42.98603" lon="2.99848">
        <ele>41.34</ele>
        <time>2021-02-28T12:44:14Z</time>
      </trkpt>
      <trkpt lat="42.98682" lon="2.99786">
        <ele>42.43</ele>
        <time>2021-02-28T12:44:41Z</time>
      </trkpt>
      <trkpt lat="42.98724" lon="2.99763">
        <ele>44.556</ele>
        <time>2021-02-28T12:45:07Z</time>
      </trkpt>
      <trkpt lat="42.98737" lon="2.99704">
        <ele>44.989</ele>
        <time>2021-02-28T12:45:25Z</time>
      </trkpt>
      <trkpt lat="42.9874" lon="2.99611">
        <ele>44.862</ele>
        <time>2021-02-28T12:45:43Z</time>
      </trkpt>
      <trkpt lat="42.98756" lon="2.99556">
        <ele>45.006</ele>
        <time>2021-02-28T12:45:54Z</time>
      </trkpt>
      <trkpt lat="42.98772" lon="2.99444">
        <ele>45.181</ele>
        <time>2021-02-28T12:46:15Z</time>
      </trkpt>
      <trkpt lat="42.98783" lon="2.99375">
        <ele>46.043</ele>
        <time>2021-02-28T12:46:31Z</time>
      </trkpt>
      <trkpt lat="42.98811" lon="2.99241">
        <ele>49.074</ele>
        <time>2021-02-28T12:47:05Z</time>
      </trkpt>
      <trkpt lat="42.9885" lon="2.99178">
        <ele>48.763</ele>
        <time>2021-02-28T12:47:28Z</time>
      </trkpt>
      <trkpt lat="42.98835" lon="2.99117">
        <ele>46.016</ele>
        <time>2021-02-28T12:47:40Z</time>
      </trkpt>
      <trkpt lat="42.98811" lon="2.99074">
        <ele>42.811</ele>
        <time>2021-02-28T12:47:47Z</time>
      </trkpt>
      <trkpt lat="42.98786" lon="2.99014">
        <ele>40.073</ele>
        <time>2021-02-28T12:47:56Z</time>
      </trkpt>
      <trkpt lat="42.98824" lon="2.98987">
        <ele>40.408</ele>
        <time>2021-02-28T12:48:10Z</time>
      </trkpt>
      <trkpt lat="42.98854" lon="2.98896">
        <ele>41.104</ele>
        <time>2021-02-28T12:48:37Z</time>
      </trkpt>
      <trkpt lat="42.98859" lon="2.98815">
        <ele>43.46</ele>
        <time>2021-02-28T12:49:00Z</time>
      </trkpt>
      <trkpt lat="42.9887" lon="2.98754">
        <ele>47.084</ele>
        <time>2021-02-28T12:49:24Z</time>
      </trkpt>
      <trkpt lat="42.9887" lon="2.98747">
        <ele>47.818</ele>
        <time>2021-02-28T12:49:52Z</time>
      </trkpt>
      <trkpt lat="42.98864" lon="2.98742">
        <ele>48.021</ele>
        <time>2021-02-28T12:50:11Z</time>
      </trkpt>
      <trkpt lat="42.98901" lon="2.98758">
        <ele>48.438</ele>
        <time>2021-02-28T12:51:05Z</time>
      </trkpt>
      <trkpt lat="42.98962" lon="2.98836">
        <ele>48.825</ele>
        <time>2021-02-28T12:51:40Z</time>
      </trkpt>
      <trkpt lat="42.99002" lon="2.98811">
        <ele>52.31</ele>
        <time>2021-02-28T12:52:02Z</time>
      </trkpt>
      <trkpt lat="42.9907" lon="2.98778">
        <ele>55.485</ele>
        <time>2021-02-28T12:52:35Z</time>
      </trkpt>
      <trkpt lat="42.99072" lon="2.98764">
        <ele>54.831</ele>
        <time>2021-02-28T12:52:53Z</time>
      </trkpt>
      <trkpt lat="42.99065" lon="2.9875">
        <ele>56.584</ele>
        <time>2021-02-28T12:53:14Z</time>
      </trkpt>
      <trkpt lat="42.9906" lon="2.98736">
        <ele>58.979</ele>
        <time>2021-02-28T12:53:34Z</time>
      </trkpt>
      <trkpt lat="42.99054" lon="2.98722">
        <ele>61.347</ele>
        <time>2021-02-28T12:53:54Z</time>
      </trkpt>
      <trkpt lat="42.99047" lon="2.98723">
        <ele>61.889</ele>
        <time>2021-02-28T12:54:05Z</time>
      </trkpt>
      <trkpt lat="42.99032" lon="2.9873">
        <ele>62.324</ele>
        <time>2021-02-28T12:54:33Z</time>
      </trkpt>
      <trkpt lat="42.99009" lon="2.9871">
        <ele>62.794</ele>
        <time>2021-02-28T12:54:45Z</time>
      </trkpt>
      <trkpt lat="42.98964" lon="2.98698">
        <ele>59.82</ele>
        <time>2021-02-28T12:54:56Z</time>
      </trkpt>
      <trkpt lat="42.98928" lon="2.98698">
        <ele>56.91</ele>
        <time>2021-02-28T12:55:05Z</time>
      </trkpt>
      <trkpt lat="42.98878" lon="2.98655">
        <ele>57.241</ele>
        <time>2021-02-28T12:55:22Z</time>
      </trkpt>
      <trkpt lat="42.98831" lon="2.98603">
        <ele>59.812</ele>
        <time>2021-02-28T12:55:56Z</time>
      </trkpt>
      <trkpt lat="42.98803" lon="2.98574">
        <ele>60.558</ele>
        <time>2021-02-28T12:56:12Z</time>
      </trkpt>
      <trkpt lat="42.98739" lon="2.98578">
        <ele>58.763</ele>
        <time>2021-02-28T12:56:37Z</time>
      </trkpt>
      <trkpt lat="42.98766" lon="2.9849">
        <ele>62.995</ele>
        <time>2021-02-28T12:57:11Z</time>
      </trkpt>
      <trkpt lat="42.98793" lon="2.98419">
        <ele>65.869</ele>
        <time>2021-02-28T12:57:34Z</time>
      </trkpt>
      <trkpt lat="42.98794" lon="2.98353">
        <ele>69.511</ele>
        <time>2021-02-28T12:57:56Z</time>
      </trkpt>
      <trkpt lat="42.9882" lon="2.98304">
        <ele>71.487</ele>
        <time>2021-02-28T12:58:16Z</time>
      </trkpt>
      <trkpt lat="42.98868" lon="2.98315">
        <ele>72.276</ele>
        <time>2021-02-28T12:58:33Z</time>
      </trkpt>
      <trkpt lat="42.98907" lon="2.98327">
        <ele>74.371</ele>
        <time>2021-02-28T12:58:50Z</time>
      </trkpt>
      <trkpt lat="42.9895" lon="2.98341">
        <ele>76.204</ele>
        <time>2021-02-28T12:59:10Z</time>
      </trkpt>
      <trkpt lat="42.98995" lon="2.98339">
        <ele>79.442</ele>
        <time>2021-02-28T12:59:30Z</time>
      </trkpt>
      <trkpt lat="42.99045" lon="2.98286">
        <ele>83.698</ele>
        <time>2021-02-28T13:00:01Z</time>
      </trkpt>
      <trkpt lat="42.99043" lon="2.98192">
        <ele>83.261</ele>
        <time>2021-02-28T13:00:27Z</time>
      </trkpt>
      <trkpt lat="42.99072" lon="2.98182">
        <ele>83.905</ele>
        <time>2021-02-28T13:00:40Z</time>
      </trkpt>
      <trkpt lat="42.99103" lon="2.98177">
        <ele>83.698</ele>
        <time>2021-02-28T13:00:58Z</time>
      </trkpt>
      <trkpt lat="42.99107" lon="2.98104">
        <ele>80.691</ele>
        <time>2021-02-28T13:01:13Z</time>
      </trkpt>
      <trkpt lat="42.99102" lon="2.98065">
        <ele>78.755</ele>
        <time>2021-02-28T13:01:21Z</time>
      </trkpt>
      <trkpt lat="42.9909" lon="2.9804">
        <ele>77.106</ele>
        <time>2021-02-28T13:01:28Z</time>
      </trkpt>
      <trkpt lat="42.99106" lon="2.98035">
        <ele>77.111</ele>
        <time>2021-02-28T13:01:45Z</time>
      </trkpt>
      <trkpt lat="42.99154" lon="2.98007">
        <ele>77.293</ele>
        <time>2021-02-28T13:02:00Z</time>
      </trkpt>
      <trkpt lat="42.99198" lon="2.97939">
        <ele>79.948</ele>
        <time>2021-02-28T13:02:22Z</time>
      </trkpt>
      <trkpt lat="42.99201" lon="2.97881">
        <ele>81.339</ele>
        <time>2021-02-28T13:02:42Z</time>
      </trkpt>
      <trkpt lat="42.99206" lon="2.97861">
        <ele>82.72</ele>
        <time>2021-02-28T13:02:54Z</time>
      </trkpt>
      <trkpt lat="42.99214" lon="2.97825">
        <ele>84.792</ele>
        <time>2021-02-28T13:03:08Z</time>
      </trkpt>
      <trkpt lat="42.99242" lon="2.9777">
        <ele>88.1</ele>
        <time>2021-02-28T13:03:33Z</time>
      </trkpt>
      <trkpt lat="42.9928" lon="2.97692">
        <ele>90.155</ele>
        <time>2021-02-28T13:04:05Z</time>
      </trkpt>
      <trkpt lat="42.9929" lon="2.97666">
        <ele>90.815</ele>
        <time>2021-02-28T13:04:16Z</time>
      </trkpt>
      <trkpt lat="42.99347" lon="2.97632">
        <ele>93.243</ele>
        <time>2021-02-28T13:04:47Z</time>
      </trkpt>
      <trkpt lat="42.99388" lon="2.97551">
        <ele>93.898</ele>
        <time>2021-02-28T13:05:15Z</time>
      </trkpt>
      <trkpt lat="42.99438" lon="2.97509">
        <ele>94.726</ele>
        <time>2021-02-28T13:05:41Z</time>
      </trkpt>
      <trkpt lat="42.99479" lon="2.97525">
        <ele>96.8</ele>
        <time>2021-02-28T13:06:01Z</time>
      </trkpt>
      <trkpt lat="42.99644" lon="2.97627">
        <ele>102.247</ele>
        <time>2021-02-28T13:07:09Z</time>
      </trkpt>
      <trkpt lat="42.9971" lon="2.97666">
        <ele>104.944</ele>
        <time>2021-02-28T13:07:32Z</time>
      </trkpt>
      <trkpt lat="42.99777" lon="2.97727">
        <ele>106</ele>
        <time>2021-02-28T13:07:56Z</time>
      </trkpt>
      <trkpt lat="42.99844" lon="2.978">
        <ele>106.176</ele>
        <time>2021-02-28T13:08:20Z</time>
      </trkpt>
      <trkpt lat="42.99885" lon="2.97924">
        <ele>107</ele>
        <time>2021-02-28T13:08:47Z</time>
      </trkpt>
      <trkpt lat="42.99948" lon="2.98086">
        <ele>105.57</ele>
        <time>2021-02-28T13:09:18Z</time>
      </trkpt>
      <trkpt lat="42.99993" lon="2.98228">
        <ele>100.715</ele>
        <time>2021-02-28T13:09:41Z</time>
      </trkpt>
      <trkpt lat="43.00014" lon="2.98317">
        <ele>97.192</ele>
        <time>2021-02-28T13:09:54Z</time>
      </trkpt>
      <trkpt lat="43.00033" lon="2.98386">
        <ele>94.535</ele>
        <time>2021-02-28T13:10:05Z</time>
      </trkpt>
      <trkpt lat="43.00089" lon="2.98473">
        <ele>93.7</ele>
        <time>2021-02-28T13:10:23Z</time>
      </trkpt>
      <trkpt lat="43.00101" lon="2.9846">
        <ele>93.612</ele>
        <time>2021-02-28T13:10:30Z</time>
      </trkpt>
      <trkpt lat="43.00148" lon="2.98313">
        <ele>93.98</ele>
        <time>2021-02-28T13:11:02Z</time>
      </trkpt>
      <trkpt lat="43.00166" lon="2.98276">
        <ele>94.609</ele>
        <time>2021-02-28T13:11:14Z</time>
      </trkpt>
      <trkpt lat="43.00183" lon="2.98254">
        <ele>93.184</ele>
        <time>2021-02-28T13:12:31Z</time>
      </trkpt>
      <trkpt lat="43.00209" lon="2.98201">
        <ele>87.774</ele>
        <time>2021-02-28T13:12:43Z</time>
      </trkpt>
      <trkpt lat="43.00222" lon="2.98177">
        <ele>83.201</ele>
        <time>2021-02-28T13:12:51Z</time>
      </trkpt>
      <trkpt lat="43.00246" lon="2.9813">
        <ele>74.129</ele>
        <time>2021-02-28T13:13:01Z</time>
      </trkpt>
      <trkpt lat="43.00255" lon="2.98126">
        <ele>71.085</ele>
        <time>2021-02-28T13:13:18Z</time>
      </trkpt>
      <trkpt lat="43.00307" lon="2.98149">
        <ele>55.214</ele>
        <time>2021-02-28T13:13:29Z</time>
      </trkpt>
      <trkpt lat="43.00334" lon="2.98134">
        <ele>53.995</ele>
        <time>2021-02-28T13:13:34Z</time>
      </trkpt>
      <trkpt lat="43.00367" lon="2.98118">
        <ele>54.013</ele>
        <time>2021-02-28T13:13:42Z</time>
      </trkpt>
      <trkpt lat="43.00363" lon="2.98069">
        <ele>55.552</ele>
        <time>2021-02-28T13:13:58Z</time>
      </trkpt>
      <trkpt lat="43.00337" lon="2.98061">
        <ele>53.126</ele>
        <time>2021-02-28T13:14:06Z</time>
      </trkpt>
      <trkpt lat="43.00321" lon="2.98039">
        <ele>52.403</ele>
        <time>2021-02-28T13:14:12Z</time>
      </trkpt>
      <trkpt lat="43.0033" lon="2.97992">
        <ele>47.721</ele>
        <time>2021-02-28T13:14:19Z</time>
      </trkpt>
      <trkpt lat="43.0035" lon="2.97971">
        <ele>45.043</ele>
        <time>2021-02-28T13:14:24Z</time>
      </trkpt>
      <trkpt lat="43.00405" lon="2.97897">
        <ele>35.591</ele>
        <time>2021-02-28T13:14:40Z</time>
      </trkpt>
      <trkpt lat="43.00435" lon="2.97889">
        <ele>30.45</ele>
        <time>2021-02-28T13:14:46Z</time>
      </trkpt>
      <trkpt lat="43.00444" lon="2.97873">
        <ele>29.388</ele>
        <time>2021-02-28T13:14:53Z</time>
      </trkpt>
      <trkpt lat="43.0046" lon="2.9779">
        <ele>27.314</ele>
        <time>2021-02-28T13:15:17Z</time>
      </trkpt>
      <trkpt lat="43.00439" lon="2.97736">
        <ele>32.053</ele>
        <time>2021-02-28T13:15:50Z</time>
      </trkpt>
      <trkpt lat="43.00449" lon="2.97694">
        <ele>36.229</ele>
        <time>2021-02-28T13:16:12Z</time>
      </trkpt>
      <trkpt lat="43.00442" lon="2.97693">
        <ele>37.719</ele>
        <time>2021-02-28T13:16:20Z</time>
      </trkpt>
      <trkpt lat="43.00427" lon="2.97706">
        <ele>38.066</ele>
        <time>2021-02-28T13:16:47Z</time>
      </trkpt>
      <trkpt lat="43.00423" lon="2.97697">
        <ele>40.007</ele>
        <time>2021-02-28T13:17:02Z</time>
      </trkpt>
      <trkpt lat="43.00423" lon="2.97678">
        <ele>42.848</ele>
        <time>2021-02-28T13:17:21Z</time>
      </trkpt>
      <trkpt lat="43.00422" lon="2.97658">
        <ele>45.221</ele>
        <time>2021-02-28T13:17:43Z</time>
      </trkpt>
      <trkpt lat="43.00432" lon="2.97634">
        <ele>46.77</ele>
        <time>2021-02-28T13:17:57Z</time>
      </trkpt>
      <trkpt lat="43.00436" lon="2.97598">
        <ele>46.516</ele>
        <time>2021-02-28T13:18:15Z</time>
      </trkpt>
      <trkpt lat="43.00376" lon="2.97601">
        <ele>49.722</ele>
        <time>2021-02-28T13:18:38Z</time>
      </trkpt>
      <trkpt lat="43.00326" lon="2.97528">
        <ele>49.956</ele>
        <time>2021-02-28T13:19:09Z</time>
      </trkpt>
      <trkpt lat="43.00327" lon="2.97454">
        <ele>44.691</ele>
        <time>2021-02-28T13:19:53Z</time>
      </trkpt>
      <trkpt lat="43.00315" lon="2.97408">
        <ele>42.055</ele>
        <time>2021-02-28T13:20:02Z</time>
      </trkpt>
      <trkpt lat="43.00261" lon="2.97448">
        <ele>50.164</ele>
        <time>2021-02-28T13:20:29Z</time>
      </trkpt>
      <trkpt lat="43.00239" lon="2.97449">
        <ele>50.088</ele>
        <time>2021-02-28T13:20:46Z</time>
      </trkpt>
      <trkpt lat="43.00226" lon="2.97493">
        <ele>53.538</ele>
        <time>2021-02-28T13:20:55Z</time>
      </trkpt>
      <trkpt lat="43.00208" lon="2.97493">
        <ele>53.676</ele>
        <time>2021-02-28T13:22:25Z</time>
      </trkpt>
      <trkpt lat="43.00198" lon="2.97484">
        <ele>53.873</ele>
        <time>2021-02-28T13:22:32Z</time>
      </trkpt>
      <trkpt lat="43.00194" lon="2.97468">
        <ele>53.236</ele>
        <time>2021-02-28T13:22:42Z</time>
      </trkpt>
      <trkpt lat="43.00198" lon="2.97442">
        <ele>51.03</ele>
        <time>2021-02-28T13:23:14Z</time>
      </trkpt>
      <trkpt lat="43.00194" lon="2.97414">
        <ele>49.426</ele>
        <time>2021-02-28T13:23:39Z</time>
      </trkpt>
      <trkpt lat="43.00194" lon="2.97374">
        <ele>46.859</ele>
        <time>2021-02-28T13:23:57Z</time>
      </trkpt>
      <trkpt lat="43.00133" lon="2.97307">
        <ele>49.935</ele>
        <time>2021-02-28T13:24:20Z</time>
      </trkpt>
      <trkpt lat="43.00176" lon="2.97198">
        <ele>44.075</ele>
        <time>2021-02-28T13:24:55Z</time>
      </trkpt>
      <trkpt lat="43.00135" lon="2.97143">
        <ele>44.504</ele>
        <time>2021-02-28T13:25:11Z</time>
      </trkpt>
      <trkpt lat="43.00175" lon="2.97058">
        <ele>38.68</ele>
        <time>2021-02-28T13:25:18Z</time>
      </trkpt>
      <trkpt lat="43.0018" lon="2.97005">
        <ele>35.14</ele>
        <time>2021-02-28T13:25:28Z</time>
      </trkpt>
      <trkpt lat="43.00232" lon="2.97044">
        <ele>32.51</ele>
        <time>2021-02-28T13:26:05Z</time>
      </trkpt>
      <trkpt lat="43.00256" lon="2.97053">
        <ele>31.271</ele>
        <time>2021-02-28T13:26:18Z</time>
      </trkpt>
      <trkpt lat="43.00271" lon="2.97071">
        <ele>33.64</ele>
        <time>2021-02-28T13:27:21Z</time>
      </trkpt>
      <trkpt lat="43.00281" lon="2.971">
        <ele>35.386</ele>
        <time>2021-02-28T13:28:02Z</time>
      </trkpt>
      <trkpt lat="43.00285" lon="2.97121">
        <ele>36.08</ele>
        <time>2021-02-28T13:28:47Z</time>
      </trkpt>
      <trkpt lat="43.00302" lon="2.97121">
        <ele>38.335</ele>
        <time>2021-02-28T13:29:01Z</time>
      </trkpt>
      <trkpt lat="43.00312" lon="2.97054">
        <ele>39.193</ele>
        <time>2021-02-28T13:29:25Z</time>
      </trkpt>
      <trkpt lat="43.00323" lon="2.97008">
        <ele>39.266</ele>
        <time>2021-02-28T13:29:36Z</time>
      </trkpt>
      <trkpt lat="43.00337" lon="2.97075">
        <ele>42.525</ele>
        <time>2021-02-28T13:29:59Z</time>
      </trkpt>
      <trkpt lat="43.0034" lon="2.97148">
        <ele>43.341</ele>
        <time>2021-02-28T13:30:22Z</time>
      </trkpt>
      <trkpt lat="43.00554" lon="2.97168">
        <ele>42.203</ele>
        <time>2021-02-28T13:30:39Z</time>
      </trkpt>
      <trkpt lat="43.00568" lon="2.97138">
        <ele>42.855</ele>
        <time>2021-02-28T13:31:15Z</time>
      </trkpt>
      <trkpt lat="43.00572" lon="2.9709">
        <ele>46.043</ele>
        <time>2021-02-28T13:31:27Z</time>
      </trkpt>
      <trkpt lat="43.00597" lon="2.97086">
        <ele>44.994</ele>
        <time>2021-02-28T13:31:52Z</time>
      </trkpt>
      <trkpt lat="43.00657" lon="2.97026">
        <ele>48.44</ele>
        <time>2021-02-28T13:32:15Z</time>
      </trkpt>
      <trkpt lat="43.00712" lon="2.96956">
        <ele>52.07</ele>
        <time>2021-02-28T13:32:33Z</time>
      </trkpt>
      <trkpt lat="43.00745" lon="2.96958">
        <ele>55.627</ele>
        <time>2021-02-28T13:32:43Z</time>
      </trkpt>
      <trkpt lat="43.00782" lon="2.97022">
        <ele>55.408</ele>
        <time>2021-02-28T13:33:53Z</time>
      </trkpt>
      <trkpt lat="43.00818" lon="2.97076">
        <ele>54.432</ele>
        <time>2021-02-28T13:34:26Z</time>
      </trkpt>
      <trkpt lat="43.00817" lon="2.97111">
        <ele>53.528</ele>
        <time>2021-02-28T13:34:40Z</time>
      </trkpt>
      <trkpt lat="43.0081" lon="2.97133">
        <ele>52.106</ele>
        <time>2021-02-28T13:35:12Z</time>
      </trkpt>
      <trkpt lat="43.0081" lon="2.97189">
        <ele>50.842</ele>
        <time>2021-02-28T13:35:58Z</time>
      </trkpt>
      <trkpt lat="43.00806" lon="2.97213">
        <ele>50.703</ele>
        <time>2021-02-28T13:36:19Z</time>
      </trkpt>
      <trkpt lat="43.00796" lon="2.97252">
        <ele>50.413</ele>
        <time>2021-02-28T13:36:48Z</time>
      </trkpt>
      <trkpt lat="43.00796" lon="2.97276">
        <ele>51.202</ele>
        <time>2021-02-28T13:36:59Z</time>
      </trkpt>
      <trkpt lat="43.00819" lon="2.97286">
        <ele>53.535</ele>
        <time>2021-02-28T13:38:15Z</time>
      </trkpt>
      <trkpt lat="43.00818" lon="2.97309">
        <ele>54.235</ele>
        <time>2021-02-28T13:38:36Z</time>
      </trkpt>
      <trkpt lat="43.00802" lon="2.9738">
        <ele>52.62</ele>
        <time>2021-02-28T13:39:30Z</time>
      </trkpt>
      <trkpt lat="43.00789" lon="2.97415">
        <ele>52.275</ele>
        <time>2021-02-28T13:39:57Z</time>
      </trkpt>
      <trkpt lat="43.00787" lon="2.97445">
        <ele>53.387</ele>
        <time>2021-02-28T13:40:26Z</time>
      </trkpt>
      <trkpt lat="43.00788" lon="2.97464">
        <ele>54.342</ele>
        <time>2021-02-28T13:40:46Z</time>
      </trkpt>
      <trkpt lat="43.00793" lon="2.97479">
        <ele>55.502</ele>
        <time>2021-02-28T13:41:04Z</time>
      </trkpt>
      <trkpt lat="43.00801" lon="2.9749">
        <ele>57.531</ele>
        <time>2021-02-28T13:43:01Z</time>
      </trkpt>
      <trkpt lat="43.00813" lon="2.97489">
        <ele>59.641</ele>
        <time>2021-02-28T13:43:14Z</time>
      </trkpt>
      <trkpt lat="43.00835" lon="2.9748">
        <ele>62.623</ele>
        <time>2021-02-28T13:43:38Z</time>
      </trkpt>
      <trkpt lat="43.00849" lon="2.97481">
        <ele>65.163</ele>
        <time>2021-02-28T13:44:00Z</time>
      </trkpt>
      <trkpt lat="43.00865" lon="2.97482">
        <ele>67.944</ele>
        <time>2021-02-28T13:44:22Z</time>
      </trkpt>
      <trkpt lat="43.00881" lon="2.97486">
        <ele>71.099</ele>
        <time>2021-02-28T13:44:50Z</time>
      </trkpt>
      <trkpt lat="43.00888" lon="2.97486">
        <ele>73.25</ele>
        <time>2021-02-28T13:45:04Z</time>
      </trkpt>
      <trkpt lat="43.00895" lon="2.97489">
        <ele>76.034</ele>
        <time>2021-02-28T13:45:24Z</time>
      </trkpt>
      <trkpt lat="43.00907" lon="2.97487">
        <ele>79.532</ele>
        <time>2021-02-28T13:45:44Z</time>
      </trkpt>
      <trkpt lat="43.0092" lon="2.97465">
        <ele>79.786</ele>
        <time>2021-02-28T13:46:33Z</time>
      </trkpt>
      <trkpt lat="43.00941" lon="2.97388">
        <ele>74.076</ele>
        <time>2021-02-28T13:47:26Z</time>
      </trkpt>
      <trkpt lat="43.00958" lon="2.97301">
        <ele>72.895</ele>
        <time>2021-02-28T13:47:47Z</time>
      </trkpt>
      <trkpt lat="43.00967" lon="2.97212">
        <ele>82.141</ele>
        <time>2021-02-28T13:48:06Z</time>
      </trkpt>
      <trkpt lat="43.01021" lon="2.97209">
        <ele>82.51</ele>
        <time>2021-02-28T13:48:24Z</time>
      </trkpt>
      <trkpt lat="43.01036" lon="2.97246">
        <ele>83.36</ele>
        <time>2021-02-28T13:48:43Z</time>
      </trkpt>
      <trkpt lat="43.01007" lon="2.97442">
        <ele>89.244</ele>
        <time>2021-02-28T13:49:08Z</time>
      </trkpt>
      <trkpt lat="43.00982" lon="2.9749">
        <ele>91.133</ele>
        <time>2021-02-28T13:49:38Z</time>
      </trkpt>
      <trkpt lat="43.00955" lon="2.97499">
        <ele>90.255</ele>
        <time>2021-02-28T13:50:09Z</time>
      </trkpt>
      <trkpt lat="43.00915" lon="2.97586">
        <ele>91.001</ele>
        <time>2021-02-28T13:50:47Z</time>
      </trkpt>
      <trkpt lat="43.00888" lon="2.97662">
        <ele>92.469</ele>
        <time>2021-02-28T13:51:27Z</time>
      </trkpt>
      <trkpt lat="43.00859" lon="2.97693">
        <ele>92.162</ele>
        <time>2021-02-28T13:51:50Z</time>
      </trkpt>
      <trkpt lat="43.00816" lon="2.9776">
        <ele>92.199</ele>
        <time>2021-02-28T13:52:19Z</time>
      </trkpt>
      <trkpt lat="43.00789" lon="2.97793">
        <ele>92.645</ele>
        <time>2021-02-28T13:52:32Z</time>
      </trkpt>
      <trkpt lat="43.00769" lon="2.97835">
        <ele>90.952</ele>
        <time>2021-02-28T13:52:46Z</time>
      </trkpt>
      <trkpt lat="43.00784" lon="2.97846">
        <ele>90.696</ele>
        <time>2021-02-28T13:55:25Z</time>
      </trkpt>
      <trkpt lat="43.0078" lon="2.97874">
        <ele>86.592</ele>
        <time>2021-02-28T13:55:41Z</time>
      </trkpt>
      <trkpt lat="43.00767" lon="2.97925">
        <ele>74.02</ele>
        <time>2021-02-28T13:55:51Z</time>
      </trkpt>
      <trkpt lat="43.0077" lon="2.97962">
        <ele>63.098</ele>
        <time>2021-02-28T13:55:56Z</time>
      </trkpt>
      <trkpt lat="43.00776" lon="2.98009">
        <ele>51.716</ele>
        <time>2021-02-28T13:56:02Z</time>
      </trkpt>
      <trkpt lat="43.00742" lon="2.98093">
        <ele>43.904</ele>
        <time>2021-02-28T13:56:15Z</time>
      </trkpt>
      <trkpt lat="43.00732" lon="2.98126">
        <ele>38.044</ele>
        <time>2021-02-28T13:56:23Z</time>
      </trkpt>
      <trkpt lat="43.00753" lon="2.98145">
        <ele>36.888</ele>
        <time>2021-02-28T13:56:32Z</time>
      </trkpt>
      <trkpt lat="43.00763" lon="2.98156">
        <ele>36.665</ele>
        <time>2021-02-28T13:56:40Z</time>
      </trkpt>
      <trkpt lat="43.00759" lon="2.98156">
        <ele>36.112</ele>
        <time>2021-02-28T13:57:02Z</time>
      </trkpt>
      <trkpt lat="43.00737" lon="2.98174">
        <ele>32.142</ele>
        <time>2021-02-28T13:57:17Z</time>
      </trkpt>
      <trkpt lat="43.00739" lon="2.98205">
        <ele>32.377</ele>
        <time>2021-02-28T13:57:29Z</time>
      </trkpt>
      <trkpt lat="43.00743" lon="2.98264">
        <ele>28.226</ele>
        <time>2021-02-28T13:57:42Z</time>
      </trkpt>
      <trkpt lat="43.00772" lon="2.98279">
        <ele>29.433</ele>
        <time>2021-02-28T13:57:54Z</time>
      </trkpt>
      <trkpt lat="43.00773" lon="2.98297">
        <ele>28.924</ele>
        <time>2021-02-28T13:58:03Z</time>
      </trkpt>
      <trkpt lat="43.00784" lon="2.98311">
        <ele>29.996</ele>
        <time>2021-02-28T13:58:22Z</time>
      </trkpt>
      <trkpt lat="43.00787" lon="2.98319">
        <ele>30.166</ele>
        <time>2021-02-28T13:58:37Z</time>
      </trkpt>
      <trkpt lat="43.00788" lon="2.9843">
        <ele>24.934</ele>
        <time>2021-02-28T13:58:57Z</time>
      </trkpt>
      <trkpt lat="43.008" lon="2.98432">
        <ele>26.049</ele>
        <time>2021-02-28T13:59:05Z</time>
      </trkpt>
      <trkpt lat="43.00821" lon="2.98412">
        <ele>28.918</ele>
        <time>2021-02-28T13:59:20Z</time>
      </trkpt>
      <trkpt lat="43.00826" lon="2.98413">
        <ele>29.453</ele>
        <time>2021-02-28T13:59:45Z</time>
      </trkpt>
      <trkpt lat="43.00841" lon="2.98411">
        <ele>30.947</ele>
        <time>2021-02-28T14:00:04Z</time>
      </trkpt>
      <trkpt lat="43.00871" lon="2.98418">
        <ele>33.176</ele>
        <time>2021-02-28T14:00:45Z</time>
      </trkpt>
      <trkpt lat="43.0087" lon="2.9844">
        <ele>31.75</ele>
        <time>2021-02-28T14:00:53Z</time>
      </trkpt>
      <trkpt lat="43.00872" lon="2.98479">
        <ele>29.669</ele>
        <time>2021-02-28T14:01:13Z</time>
      </trkpt>
      <trkpt lat="43.0088" lon="2.9849">
        <ele>30.939</ele>
        <time>2021-02-28T14:01:27Z</time>
      </trkpt>
      <trkpt lat="43.00888" lon="2.98492">
        <ele>33.097</ele>
        <time>2021-02-28T14:01:45Z</time>
      </trkpt>
      <trkpt lat="43.00908" lon="2.98532">
        <ele>37.923</ele>
        <time>2021-02-28T14:02:01Z</time>
      </trkpt>
      <trkpt lat="43.00903" lon="2.9856">
        <ele>36.039</ele>
        <time>2021-02-28T14:02:11Z</time>
      </trkpt>
      <trkpt lat="43.00882" lon="2.9862">
        <ele>31.237</ele>
        <time>2021-02-28T14:02:24Z</time>
      </trkpt>
      <trkpt lat="43.00882" lon="2.9865">
        <ele>31.68</ele>
        <time>2021-02-28T14:02:37Z</time>
      </trkpt>
      <trkpt lat="43.00882" lon="2.98671">
        <ele>32.31</ele>
        <time>2021-02-28T14:03:12Z</time>
      </trkpt>
      <trkpt lat="43.0089" lon="2.98697">
        <ele>34.721</ele>
        <time>2021-02-28T14:03:20Z</time>
      </trkpt>
      <trkpt lat="43.00899" lon="2.98738">
        <ele>36.804</ele>
        <time>2021-02-28T14:03:42Z</time>
      </trkpt>
      <trkpt lat="43.00908" lon="2.98756">
        <ele>36.936</ele>
        <time>2021-02-28T14:04:02Z</time>
      </trkpt>
      <trkpt lat="43.00923" lon="2.98739">
        <ele>39.599</ele>
        <time>2021-02-28T14:04:30Z</time>
      </trkpt>
      <trkpt lat="43.00922" lon="2.98709">
        <ele>41.31</ele>
        <time>2021-02-28T14:04:50Z</time>
      </trkpt>
      <trkpt lat="43.00939" lon="2.98684">
        <ele>42.78</ele>
        <time>2021-02-28T14:05:05Z</time>
      </trkpt>
      <trkpt lat="43.0096" lon="2.98636">
        <ele>46.452</ele>
        <time>2021-02-28T14:05:23Z</time>
      </trkpt>
      <trkpt lat="43.00984" lon="2.98613">
        <ele>51.199</ele>
        <time>2021-02-28T14:05:39Z</time>
      </trkpt>
      <trkpt lat="43.00986" lon="2.9865">
        <ele>50.1</ele>
        <time>2021-02-28T14:05:52Z</time>
      </trkpt>
      <trkpt lat="43.01002" lon="2.98625">
        <ele>53.035</ele>
        <time>2021-02-28T14:06:09Z</time>
      </trkpt>
      <trkpt lat="43.0101" lon="2.98627">
        <ele>54.055</ele>
        <time>2021-02-28T14:06:19Z</time>
      </trkpt>
      <trkpt lat="43.01014" lon="2.98645">
        <ele>55.568</ele>
        <time>2021-02-28T14:06:30Z</time>
      </trkpt>
      <trkpt lat="43.01021" lon="2.9868">
        <ele>56.79</ele>
        <time>2021-02-28T14:06:47Z</time>
      </trkpt>
      <trkpt lat="43.01026" lon="2.98719">
        <ele>56.128</ele>
        <time>2021-02-28T14:07:01Z</time>
      </trkpt>
      <trkpt lat="43.01045" lon="2.98715">
        <ele>59.842</ele>
        <time>2021-02-28T14:07:17Z</time>
      </trkpt>
      <trkpt lat="43.0109" lon="2.98667">
        <ele>64.989</ele>
        <time>2021-02-28T14:07:57Z</time>
      </trkpt>
      <trkpt lat="43.01138" lon="2.9864">
        <ele>66.382</ele>
        <time>2021-02-28T14:08:26Z</time>
      </trkpt>
      <trkpt lat="43.01144" lon="2.98666">
        <ele>64.774</ele>
        <time>2021-02-28T14:08:45Z</time>
      </trkpt>
      <trkpt lat="43.01146" lon="2.98715">
        <ele>62.528</ele>
        <time>2021-02-28T14:08:54Z</time>
      </trkpt>
      <trkpt lat="43.01144" lon="2.98748">
        <ele>59.479</ele>
        <time>2021-02-28T14:09:02Z</time>
      </trkpt>
      <trkpt lat="43.01146" lon="2.98788">
        <ele>55.124</ele>
        <time>2021-02-28T14:09:11Z</time>
      </trkpt>
      <trkpt lat="43.01142" lon="2.98833">
        <ele>45.206</ele>
        <time>2021-02-28T14:09:23Z</time>
      </trkpt>
      <trkpt lat="43.0113" lon="2.9888">
        <ele>35.745</ele>
        <time>2021-02-28T14:09:32Z</time>
      </trkpt>
      <trkpt lat="43.01122" lon="2.98915">
        <ele>31.794</ele>
        <time>2021-02-28T14:09:40Z</time>
      </trkpt>
      <trkpt lat="43.01114" lon="2.98951">
        <ele>31.283</ele>
        <time>2021-02-28T14:09:56Z</time>
      </trkpt>
      <trkpt lat="43.01111" lon="2.98971">
        <ele>31.23</ele>
        <time>2021-02-28T14:10:27Z</time>
      </trkpt>
      <trkpt lat="43.01113" lon="2.99022">
        <ele>29.464</ele>
        <time>2021-02-28T14:10:36Z</time>
      </trkpt>
      <trkpt lat="43.01124" lon="2.99042">
        <ele>26.089</ele>
        <time>2021-02-28T14:10:42Z</time>
      </trkpt>
      <trkpt lat="43.01128" lon="2.99074">
        <ele>20.493</ele>
        <time>2021-02-28T14:10:48Z</time>
      </trkpt>
      <trkpt lat="43.0114" lon="2.99097">
        <ele>18.398</ele>
        <time>2021-02-28T14:11:18Z</time>
      </trkpt>
      <trkpt lat="43.01116" lon="2.9914">
        <ele>16.302</ele>
        <time>2021-02-28T14:11:32Z</time>
      </trkpt>
      <trkpt lat="43.01061" lon="2.99134">
        <ele>20.215</ele>
        <time>2021-02-28T14:12:06Z</time>
      </trkpt>
      <trkpt lat="43.00999" lon="2.99054">
        <ele>19.846</ele>
        <time>2021-02-28T14:12:33Z</time>
      </trkpt>
      <trkpt lat="43.00969" lon="2.99059">
        <ele>23.438</ele>
        <time>2021-02-28T14:12:53Z</time>
      </trkpt>
      <trkpt lat="43.00918" lon="2.99097">
        <ele>27.25</ele>
        <time>2021-02-28T14:13:12Z</time>
      </trkpt>
      <trkpt lat="43.00893" lon="2.99117">
        <ele>27.896</ele>
        <time>2021-02-28T14:13:25Z</time>
      </trkpt>
      <trkpt lat="43.00865" lon="2.99153">
        <ele>28.779</ele>
        <time>2021-02-28T14:13:40Z</time>
      </trkpt>
      <trkpt lat="43.00848" lon="2.99213">
        <ele>32.116</ele>
        <time>2021-02-28T14:13:57Z</time>
      </trkpt>
      <trkpt lat="43.00847" lon="2.99226">
        <ele>33.453</ele>
        <time>2021-02-28T14:14:11Z</time>
      </trkpt>
      <trkpt lat="43.00851" lon="2.99254">
        <ele>36.839</ele>
        <time>2021-02-28T14:14:31Z</time>
      </trkpt>
      <trkpt lat="43.00893" lon="2.99257">
        <ele>43.131</ele>
        <time>2021-02-28T14:17:37Z</time>
      </trkpt>
      <trkpt lat="43.00933" lon="2.99242">
        <ele>49.919</ele>
        <time>2021-02-28T14:17:53Z</time>
      </trkpt>
      <trkpt lat="43.00918" lon="2.99308">
        <ele>50.018</ele>
        <time>2021-02-28T14:18:16Z</time>
      </trkpt>
      <trkpt lat="43.0092" lon="2.99368">
        <ele>51.087</ele>
        <time>2021-02-28T14:18:34Z</time>
      </trkpt>
      <trkpt lat="43.00936" lon="2.99421">
        <ele>54.802</ele>
        <time>2021-02-28T14:18:50Z</time>
      </trkpt>
      <trkpt lat="43.00998" lon="2.99412">
        <ele>46.968</ele>
        <time>2021-02-28T14:19:05Z</time>
      </trkpt>
      <trkpt lat="43.01033" lon="2.99404">
        <ele>43.051</ele>
        <time>2021-02-28T14:19:11Z</time>
      </trkpt>
      <trkpt lat="43.01055" lon="2.99424">
        <ele>42.547</ele>
        <time>2021-02-28T14:19:16Z</time>
      </trkpt>
      <trkpt lat="43.01076" lon="2.99474">
        <ele>41.775</ele>
        <time>2021-02-28T14:19:29Z</time>
      </trkpt>
      <trkpt lat="43.0114" lon="2.99444">
        <ele>39.437</ele>
        <time>2021-02-28T14:19:45Z</time>
      </trkpt>
      <trkpt lat="43.01194" lon="2.99374">
        <ele>31.673</ele>
        <time>2021-02-28T14:20:01Z</time>
      </trkpt>
      <trkpt lat="43.01208" lon="2.99358">
        <ele>30.405</ele>
        <time>2021-02-28T14:20:08Z</time>
      </trkpt>
      <trkpt lat="43.01229" lon="2.99347">
        <ele>29</ele>
        <time>2021-02-28T14:20:34Z</time>
      </trkpt>
      <trkpt lat="43.01234" lon="2.99337">
        <ele>29.387</ele>
        <time>2021-02-28T14:21:07Z</time>
      </trkpt>
      <trkpt lat="43.01294" lon="2.99257">
        <ele>24.235</ele>
        <time>2021-02-28T14:21:30Z</time>
      </trkpt>
      <trkpt lat="43.01305" lon="2.99201">
        <ele>21.519</ele>
        <time>2021-02-28T14:21:44Z</time>
      </trkpt>
      <trkpt lat="43.01321" lon="2.99156">
        <ele>21.716</ele>
        <time>2021-02-28T14:21:54Z</time>
      </trkpt>
      <trkpt lat="43.01331" lon="2.99133">
        <ele>21.34</ele>
        <time>2021-02-28T14:22:03Z</time>
      </trkpt>
      <trkpt lat="43.0133" lon="2.99094">
        <ele>24.002</ele>
        <time>2021-02-28T14:22:17Z</time>
      </trkpt>
      <trkpt lat="43.01317" lon="2.99057">
        <ele>26.245</ele>
        <time>2021-02-28T14:22:29Z</time>
      </trkpt>
      <trkpt lat="43.01325" lon="2.99029">
        <ele>26.886</ele>
        <time>2021-02-28T14:24:34Z</time>
      </trkpt>
      <trkpt lat="43.01312" lon="2.99019">
        <ele>24.313</ele>
        <time>2021-02-28T14:24:40Z</time>
      </trkpt>
      <trkpt lat="43.01303" lon="2.99016">
        <ele>22.154</ele>
        <time>2021-02-28T14:24:50Z</time>
      </trkpt>
      <trkpt lat="43.01309" lon="2.98994">
        <ele>19.714</ele>
        <time>2021-02-28T14:24:59Z</time>
      </trkpt>
      <trkpt lat="43.01334" lon="2.98987">
        <ele>18.822</ele>
        <time>2021-02-28T14:25:12Z</time>
      </trkpt>
      <trkpt lat="43.0136" lon="2.9901">
        <ele>17.674</ele>
        <time>2021-02-28T14:25:24Z</time>
      </trkpt>
      <trkpt lat="43.01374" lon="2.99092">
        <ele>16.456</ele>
        <time>2021-02-28T14:25:43Z</time>
      </trkpt>
      <trkpt lat="43.01367" lon="2.99148">
        <ele>14.209</ele>
        <time>2021-02-28T14:26:32Z</time>
      </trkpt>
      <trkpt lat="43.01387" lon="2.99164">
        <ele>13.715</ele>
        <time>2021-02-28T14:27:32Z</time>
      </trkpt>
      <trkpt lat="43.01405" lon="2.99159">
        <ele>13.813</ele>
        <time>2021-02-28T14:27:53Z</time>
      </trkpt>
      <trkpt lat="43.01438" lon="2.99179">
        <ele>17.785</ele>
        <time>2021-02-28T14:28:17Z</time>
      </trkpt>
      <trkpt lat="43.01438" lon="2.99269">
        <ele>19.013</ele>
        <time>2021-02-28T14:28:43Z</time>
      </trkpt>
      <trkpt lat="43.01454" lon="2.9927">
        <ele>22.835</ele>
        <time>2021-02-28T14:29:03Z</time>
      </trkpt>
      <trkpt lat="43.01458" lon="2.9926">
        <ele>23.7</ele>
        <time>2021-02-28T14:29:12Z</time>
      </trkpt>
      <trkpt lat="43.01461" lon="2.99249">
        <ele>24.06</ele>
        <time>2021-02-28T14:29:29Z</time>
      </trkpt>
      <trkpt lat="43.01471" lon="2.9924">
        <ele>25.9</ele>
        <time>2021-02-28T14:29:43Z</time>
      </trkpt>
      <trkpt lat="43.01507" lon="2.99219">
        <ele>32.22</ele>
        <time>2021-02-28T14:30:24Z</time>
      </trkpt>
      <trkpt lat="43.01524" lon="2.99226">
        <ele>35.4</ele>
        <time>2021-02-28T14:30:50Z</time>
      </trkpt>
      <trkpt lat="43.01529" lon="2.99236">
        <ele>36.32</ele>
        <time>2021-02-28T14:31:15Z</time>
      </trkpt>
      <trkpt lat="43.01527" lon="2.99305">
        <ele>37.236</ele>
        <time>2021-02-28T14:31:45Z</time>
      </trkpt>
      <trkpt lat="43.015" lon="2.99337">
        <ele>37.937</ele>
        <time>2021-02-28T14:32:00Z</time>
      </trkpt>
      <trkpt lat="43.01518" lon="2.99411">
        <ele>35.584</ele>
        <time>2021-02-28T14:32:20Z</time>
      </trkpt>
      <trkpt lat="43.0151" lon="2.99445">
        <ele>32.57</ele>
        <time>2021-02-28T14:32:30Z</time>
      </trkpt>
      <trkpt lat="43.01553" lon="2.9946">
        <ele>33.149</ele>
        <time>2021-02-28T14:32:48Z</time>
      </trkpt>
      <trkpt lat="43.01625" lon="2.99553">
        <ele>33.484</ele>
        <time>2021-02-28T14:33:24Z</time>
      </trkpt>
      <trkpt lat="43.01665" lon="2.99516">
        <ele>33.701</ele>
        <time>2021-02-28T14:33:42Z</time>
      </trkpt>
      <trkpt lat="43.0173" lon="2.99477">
        <ele>37.273</ele>
        <time>2021-02-28T14:34:09Z</time>
      </trkpt>
      <trkpt lat="43.01757" lon="2.99483">
        <ele>37.601</ele>
        <time>2021-02-28T14:34:26Z</time>
      </trkpt>
      <trkpt lat="43.0177" lon="2.99517">
        <ele>36.962</ele>
        <time>2021-02-28T14:34:36Z</time>
      </trkpt>
      <trkpt lat="43.0178" lon="2.99586">
        <ele>40.351</ele>
        <time>2021-02-28T14:34:56Z</time>
      </trkpt>
      <trkpt lat="43.01794" lon="2.9961">
        <ele>42.6</ele>
        <time>2021-02-28T14:35:07Z</time>
      </trkpt>
      <trkpt lat="43.01811" lon="2.99635">
        <ele>45.846</ele>
        <time>2021-02-28T14:35:23Z</time>
      </trkpt>
      <trkpt lat="43.01816" lon="2.99656">
        <ele>45.454</ele>
        <time>2021-02-28T14:35:36Z</time>
      </trkpt>
      <trkpt lat="43.0185" lon="2.99688">
        <ele>39.289</ele>
        <time>2021-02-28T14:35:55Z</time>
      </trkpt>
      <trkpt lat="43.01866" lon="2.9971">
        <ele>33.383</ele>
        <time>2021-02-28T14:36:01Z</time>
      </trkpt>
      <trkpt lat="43.01874" lon="2.9973">
        <ele>30.832</ele>
        <time>2021-02-28T14:36:06Z</time>
      </trkpt>
      <trkpt lat="43.01898" lon="2.99778">
        <ele>23.984</ele>
        <time>2021-02-28T14:36:13Z</time>
      </trkpt>
      <trkpt lat="43.01909" lon="2.99808">
        <ele>21.112</ele>
        <time>2021-02-28T14:36:19Z</time>
      </trkpt>
      <trkpt lat="43.01917" lon="2.9981">
        <ele>20.553</ele>
        <time>2021-02-28T14:36:44Z</time>
      </trkpt>
      <trkpt lat="43.01994" lon="2.9983">
        <ele>15.9</ele>
        <time>2021-02-28T14:37:05Z</time>
      </trkpt>
      <trkpt lat="43.02069" lon="2.99719">
        <ele>16.141</ele>
        <time>2021-02-28T14:37:29Z</time>
      </trkpt>
      <trkpt lat="43.02215" lon="2.99441">
        <ele>18.684</ele>
        <time>2021-02-28T14:38:38Z</time>
      </trkpt>
      <trkpt lat="43.02255" lon="2.99393">
        <ele>15.871</ele>
        <time>2021-02-28T14:40:12Z</time>
      </trkpt>
      <trkpt lat="43.02309" lon="2.99324">
        <ele>11.553</ele>
        <time>2021-02-28T14:40:23Z</time>
      </trkpt>
      <trkpt lat="43.02378" lon="2.99266">
        <ele>8.628</ele>
        <time>2021-02-28T14:40:33Z</time>
      </trkpt>
      <trkpt lat="43.02484" lon="2.99157">
        <ele>8</ele>
        <time>2021-02-28T14:41:06Z</time>
      </trkpt>
      <trkpt lat="43.02549" lon="2.99027">
        <ele>8</ele>
        <time>2021-02-28T14:41:33Z</time>
      </trkpt>
      <trkpt lat="43.02549" lon="2.98991">
        <ele>8</ele>
        <time>2021-02-28T14:41:48Z</time>
      </trkpt>
      <trkpt lat="43.02606" lon="2.98952">
        <ele>8</ele>
        <time>2021-02-28T14:42:12Z</time>
      </trkpt>
      <trkpt lat="43.02709" lon="2.98945">
        <ele>9</ele>
        <time>2021-02-28T14:42:46Z</time>
      </trkpt>
      <trkpt lat="43.02763" lon="2.98887">
        <ele>10.078</ele>
        <time>2021-02-28T14:43:07Z</time>
      </trkpt>
      <trkpt lat="43.02759" lon="2.98731">
        <ele>9.139</ele>
        <time>2021-02-28T14:43:35Z</time>
      </trkpt>
      <trkpt lat="43.02751" lon="2.98504">
        <ele>11.352</ele>
        <time>2021-02-28T14:44:10Z</time>
      </trkpt>
      <trkpt lat="43.0276" lon="2.98254">
        <ele>9.072</ele>
        <time>2021-02-28T14:44:45Z</time>
      </trkpt>
      <trkpt lat="43.02827" lon="2.98012">
        <ele>18.656</ele>
        <time>2021-02-28T14:45:43Z</time>
      </trkpt>
      <trkpt lat="43.0284" lon="2.97958">
        <ele>19.605</ele>
        <time>2021-02-28T14:45:52Z</time>
      </trkpt>
      <trkpt lat="43.02863" lon="2.97865">
        <ele>20</ele>
        <time>2021-02-28T14:46:09Z</time>
      </trkpt>
      <trkpt lat="43.02858" lon="2.97849">
        <ele>20</ele>
        <time>2021-02-28T14:46:20Z</time>
      </trkpt>
      <trkpt lat="43.02802" lon="2.97834">
        <ele>19.768</ele>
        <time>2021-02-28T14:46:32Z</time>
      </trkpt>
      <trkpt lat="43.02697" lon="2.97792">
        <ele>16.406</ele>
        <time>2021-02-28T14:46:52Z</time>
      </trkpt>
      <trkpt lat="43.02646" lon="2.97779">
        <ele>15.215</ele>
        <time>2021-02-28T14:47:01Z</time>
      </trkpt>
      <trkpt lat="43.02549" lon="2.97745">
        <ele>11.087</ele>
        <time>2021-02-28T14:47:18Z</time>
      </trkpt>
      <trkpt lat="43.02489" lon="2.97716">
        <ele>7.878</ele>
        <time>2021-02-28T14:47:30Z</time>
      </trkpt>
    </trkseg>
  </trk>
</gpx>